GMI13EH / D-AGER 7700 Squawk Report (20th of October, 2018)

Aircraft B737 Reg No. D-AGER Age 20 years old
Model 737 Jet engines 2 First flight 19-05-98
Registered 10-04-09 Rollout N/A Delivered 10-06-98
Construction No. 28107 Line No. 0027 Series 75B
ADSHEX 3C5CB2 Airline name Germania Owner N/A
Airfield based Koln-Bonn~Nordrhein-Westfalen~D First tracked 2011-04-02 10:17:01

Flight history for D-AGER

Route Flight No Date Playback
???? N/A 2018-11-14 15:29:00
???? N/A 2018-11-13 22:30:00
???? N/A 2018-11-13 17:54:00
???? N/A 2018-11-12 21:12:00
???? N/A 2018-11-12 12:07:00
???? N/A 2018-11-12 17:13:00
Gran Canaria (LPA) - Dresden (DRS) ST2903 2018-11-11 22:04:00
Dresden (DRS) - Gran Canaria (LPA) ST2902 2018-11-11 17:50:00
Son Sant Joan (PMI) - Dresden (DRS) ST2901 2018-11-11 11:27:00
Dresden (DRS) - Son Sant Joan (PMI) ST2900 2018-11-11 06:41:00
Fuerteventura (FUE) - Dresden (DRS) ST2913 2018-11-10 21:46:00
Dresden (DRS) - Fuerteventura (FUE) ST2912 2018-11-10 16:34:00
Son Sant Joan (PMI) - Dresden (DRS) ST2901 2018-11-10 10:06:00
Dresden (DRS) - Son Sant Joan (PMI) ST2900 2018-11-10 06:38:00
???? N/A 2018-11-10 04:32:00
???? N/A 2018-11-09 15:58:00
Tenerife Sur (TFS) - Dresden (DRS) ST2905 2018-11-08 22:05:00
Dresden (DRS) - Tenerife Sur (TFS) ST2904 2018-11-08 16:32:00
Son Sant Joan (PMI) - Dresden (DRS) ST2901 2018-11-08 11:21:00
Dresden (DRS) - Son Sant Joan (PMI) ST2900 2018-11-08 08:11:00
Time Lat Lon Altitude Heading Speed Vertical Rate
2018-10-20 21:33:31 GMT 48.118149 16.551483 0 348 17 0
2018-10-20 21:33:18 GMT 48.117104 16.552698 0 317 33 0
2018-10-20 21:33:14 GMT 48.116718 16.553263 0 312 36 0
2018-10-20 21:32:57 GMT 48.115170 16.556837 0 295 46 0
2018-10-20 21:32:52 GMT 48.114590 16.558649 0 295 54 0
2018-10-20 21:32:29 GMT 48.110867 16.570042 0 295 135 0
2018-10-20 21:32:18 GMT 48.107967 16.578861 325 296 129 -704
2018-10-20 21:32:10 GMT 48.106106 16.584707 400 296 130 -768
2018-10-20 21:32:04 GMT 48.104195 16.590553 500 296 131 -704
2018-10-20 21:32:00 GMT 48.103405 16.593018 525 296 128 -704
2018-10-20 21:31:50 GMT 48.100517 16.601822 650 297 127 -640
2018-10-20 21:31:45 GMT 48.098694 16.607346 750 297 126 -704
2018-10-20 21:31:39 GMT 48.097866 16.609850 775 297 127 -704
2018-10-20 21:31:32 GMT 48.096096 16.615341 850 296 127 -768
2018-10-20 21:31:28 GMT 48.095119 16.618299 925 296 128 -704
2018-10-20 21:31:24 GMT 48.093723 16.622667 975 296 127 -576
2018-10-20 21:31:21 GMT 48.093208 16.624216 1,000 297 127 -704
2018-10-20 21:31:18 GMT 48.092419 16.626539 1,025 297 127 -768
2018-10-20 21:31:10 GMT 48.090416 16.632668 1,175 297 126 -640
2018-10-20 21:31:07 GMT 48.089626 16.634991 1,175 297 126 -640
2018-10-20 21:31:01 GMT 48.088043 16.639780 1,225 297 126 -576
2018-10-20 21:30:57 GMT 48.086926 16.643230 1,275 298 124 -640
2018-10-20 21:30:52 GMT 48.085762 16.646610 1,350 297 126 -832
2018-10-20 21:30:49 GMT 48.084869 16.649300 1,350 297 126 -832
2018-10-20 21:30:46 GMT 48.084225 16.651190 1,400 297 127 -768
2018-10-20 21:30:42 GMT 48.082924 16.655132 1,475 296 129 -832
2018-10-20 21:30:38 GMT 48.082176 16.657387 1,500 296 132 -768
2018-10-20 21:30:35 GMT 48.081387 16.659851 1,550 296 133 -640
2018-10-20 21:30:31 GMT 48.080173 16.663795 1,600 295 138 -768
2018-10-20 21:30:28 GMT 48.079430 16.666260 1,625 295 140 -768
2018-10-20 21:30:25 GMT 48.078407 16.669357 1,675 296 139 -768
2018-10-20 21:30:21 GMT 48.077225 16.673058 1,725 297 142 -896
2018-10-20 21:30:18 GMT 48.076538 16.675186 1,775 296 144 -896
2018-10-20 21:30:14 GMT 48.075520 16.678232 1,825 296 145 -832
2018-10-20 21:30:08 GMT 48.073425 16.684711 1,900 297 144 -768
2018-10-20 21:30:00 GMT 48.070999 16.692009 2,025 297 143 -704
2018-10-20 21:29:57 GMT 48.070354 16.693937 2,050 297 142 -768
2018-10-20 21:29:54 GMT 48.069283 16.697317 2,100 296 141 -832
2018-10-20 21:29:47 GMT 48.067467 16.702810 2,200 296 143 -832
2018-10-20 21:29:42 GMT 48.066071 16.707106 2,250 297 144 -704
2018-10-20 21:29:37 GMT 48.064407 16.712265 2,325 296 144 -704
2018-10-20 21:29:28 GMT 48.060883 16.723045 2,475 297 144 -768
2018-10-20 21:29:21 GMT 48.059879 16.726051 2,525 297 144 -832
2018-10-20 21:29:18 GMT 48.058807 16.729290 2,575 297 143 -768
2018-10-20 21:29:15 GMT 48.058205 16.731050 2,600 297 143 -448
2018-10-20 21:29:11 GMT 48.056900 16.735136 2,625 297 143 -320
2018-10-20 21:29:04 GMT 48.055084 16.740629 2,650 297 144 64
2018-10-20 21:28:57 GMT 48.052917 16.747284 2,650 296 145 0
2018-10-20 21:28:54 GMT 48.052094 16.749756 2,650 297 145 0
2018-10-20 21:28:48 GMT 48.050011 16.756193 2,650 296 148 0
2018-10-20 21:28:45 GMT 48.049118 16.758957 2,650 296 150 0
2018-10-20 21:28:36 GMT 48.046566 16.767038 2,650 296 154 -64
2018-10-20 21:28:33 GMT 48.045818 16.769361 2,650 296 155 0
2018-10-20 21:28:27 GMT 48.043957 16.774996 2,650 296 160 -64
2018-10-20 21:28:24 GMT 48.042652 16.779364 2,650 293 167 -64
2018-10-20 21:28:17 GMT 48.040977 16.785843 2,650 289 172 256
2018-10-20 21:28:13 GMT 48.039955 16.791054 2,650 284 180 64
2018-10-20 21:28:06 GMT 48.038746 16.799997 2,625 282 188 0
2018-10-20 21:28:03 GMT 48.038269 16.804962 2,650 278 193 -384
2018-10-20 21:27:56 GMT 48.038277 16.812674 2,650 261 208 -448
2018-10-20 21:27:52 GMT 48.039207 16.819153 2,675 252 217 -320
2018-10-20 21:27:41 GMT 48.044796 16.833590 2,750 230 233 -640
2018-10-20 21:27:34 GMT 48.050102 16.840563 2,825 211 246 -640
2018-10-20 21:27:31 GMT 48.052963 16.843208 2,850 209 244 -704
2018-10-20 21:27:26 GMT 48.059040 16.847464 2,925 202 254 -896
2018-10-20 21:27:21 GMT 48.064636 16.850693 3,000 202 260 -896
2018-10-20 21:27:14 GMT 48.073051 16.855492 3,125 195 275 -960
2018-10-20 21:27:11 GMT 48.076313 16.857252 3,150 199 270 -896
2018-10-20 21:27:05 GMT 48.083668 16.860140 3,250 186 282 -960
2018-10-20 21:26:59 GMT 48.090927 16.860985 3,350 179 286 -1024
2018-10-20 21:26:52 GMT 48.099632 16.859295 3,500 163 295 -1024
2018-10-20 21:26:49 GMT 48.104614 16.857042 3,600 159 296 -960
2018-10-20 21:26:41 GMT 48.114761 16.849800 3,775 150 296 -1536
2018-10-20 21:26:32 GMT 48.124214 16.841478 3,950 149 296 -1152
2018-10-20 21:26:28 GMT 48.128494 16.837715 4,000 149 299 -1216
2018-10-20 21:26:20 GMT 48.139893 16.827553 4,250 148 299 -1152
2018-10-20 21:26:09 GMT 48.152252 16.816292 4,400 148 303 -832
2018-10-20 21:26:06 GMT 48.154892 16.813871 4,425 148 303 -896
2018-10-20 21:26:01 GMT 48.161362 16.807854 4,525 148 307 -1024
2018-10-20 21:25:58 GMT 48.164993 16.804527 4,575 148 307 -1088
2018-10-20 21:25:54 GMT 48.169323 16.800482 4,625 148 308 -768
2018-10-20 21:25:51 GMT 48.173466 16.796722 4,675 147 311 -640
2018-10-20 21:25:46 GMT 48.179352 16.791195 4,725 147 314 -64
2018-10-20 21:25:43 GMT 48.184296 16.786547 4,750 148 317 -576
2018-10-20 21:25:38 GMT 48.190552 16.780748 4,825 148 320 -1344
2018-10-20 21:25:35 GMT 48.196648 16.775110 4,925 148 326 -1408
2018-10-20 21:25:30 GMT 48.201305 16.770847 5,025 148 329 -1408
2018-10-20 21:25:27 GMT 48.204163 16.768166 5,050 148 329 -1408
2018-10-20 21:25:22 GMT 48.210434 16.762390 5,200 148 341 -1664
2018-10-20 21:25:19 GMT 48.214691 16.758446 5,275 148 336 -1600
2018-10-20 21:25:16 GMT 48.218948 16.754433 5,375 148 341 -1664
2018-10-20 21:25:12 GMT 48.224579 16.749163 5,500 148 345 -1792
2018-10-20 21:25:08 GMT 48.228397 16.745623 5,650 147 349 -1920
2018-10-20 21:25:05 GMT 48.233047 16.741333 5,650 147 349 -1920
2018-10-20 21:25:01 GMT 48.239384 16.735357 5,825 148 353 -2048
2018-10-20 21:24:56 GMT 48.246643 16.728586 6,000 148 357 -2048
2018-10-20 21:24:52 GMT 48.250854 16.724642 6,200 147 362 -2304
2018-10-20 21:24:48 GMT 48.257118 16.718805 6,300 147 365 -2304
2018-10-20 21:24:45 GMT 48.261402 16.714760 6,425 148 367 -2240
2018-10-20 21:24:42 GMT 48.265732 16.710768 6,500 148 368 -2112
2018-10-20 21:24:38 GMT 48.272484 16.704494 6,625 148 375 -1088
2018-10-20 21:24:34 GMT 48.278046 16.699219 6,725 148 378 -1408
2018-10-20 21:24:28 GMT 48.285233 16.692598 6,950 148 379 -3136
2018-10-20 21:24:25 GMT 48.290916 16.687292 7,050 148 379 -3392
2018-10-20 21:24:22 GMT 48.294754 16.683725 7,200 148 379 -3200
2018-10-20 21:24:16 GMT 48.304604 16.674572 7,475 148 380 -2176
2018-10-20 21:24:12 GMT 48.309082 16.670416 7,625 147 382 -2112
2018-10-20 21:24:09 GMT 48.315674 16.664217 7,800 147 382 -2944
2018-10-20 21:24:06 GMT 48.320152 16.659971 7,900 147 382 -3136
2018-10-20 21:24:02 GMT 48.324387 16.655996 8,050 147 382 -2752
2018-10-20 21:23:58 GMT 48.330997 16.649780 8,150 148 383 -2624
2018-10-20 21:23:55 GMT 48.335793 16.645300 8,400 148 386 -2304
2018-10-20 21:23:52 GMT 48.340347 16.641048 8,425 148 386 -2240
2018-10-20 21:23:48 GMT 48.348267 16.633722 8,700 148 387 -2944
2018-10-20 21:23:44 GMT 48.354042 16.628313 8,900 148 387 -3008
2018-10-20 21:23:37 GMT 48.362915 16.620062 9,175 148 389 -2944
2018-10-20 21:23:34 GMT 48.367168 16.616026 9,300 147 388 -2880
2018-10-20 21:23:31 GMT 48.371731 16.611761 9,400 147 389 -2816
2018-10-20 21:23:28 GMT 48.377224 16.606630 9,700 147 390 -2688
2018-10-20 21:23:24 GMT 48.383324 16.600775 9,800 147 391 -2752
2018-10-20 21:23:20 GMT 48.388863 16.595572 9,975 147 392 -2752
2018-10-20 21:23:16 GMT 48.394089 16.590624 10,050 147 392 -2752
2018-10-20 21:23:13 GMT 48.400864 16.584213 10,300 147 394 -2112
2018-10-20 21:23:10 GMT 48.405212 16.580130 10,400 147 397 -1664
2018-10-20 21:23:07 GMT 48.407997 16.577501 10,450 148 399 -1792
2018-10-20 21:23:04 GMT 48.414001 16.571890 10,575 148 401 -2240
2018-10-20 21:23:01 GMT 48.418396 16.567804 10,850 148 402 -2624
2018-10-20 21:22:58 GMT 48.424118 16.562523 10,850 148 403 -3136
2018-10-20 21:22:55 GMT 48.428898 16.558130 11,000 148 403 -3712
2018-10-20 21:22:51 GMT 48.434921 16.552664 11,225 148 402 -3584
2018-10-20 21:22:48 GMT 48.438721 16.549143 11,375 148 403 -2816
2018-10-20 21:22:45 GMT 48.443848 16.544424 11,500 148 406 -1472
2018-10-20 21:22:41 GMT 48.449615 16.539143 11,625 148 409 -1728
2018-10-20 21:22:38 GMT 48.455154 16.534136 11,675 148 411 -2944
2018-10-20 21:22:35 GMT 48.466187 16.523870 11,900 148 412 -3520
2018-10-20 21:22:32 GMT 48.466187 16.523870 12,125 148 413 -3392
2018-10-20 21:22:28 GMT 48.471725 16.518719 12,250 148 414 -3008
2018-10-20 21:22:25 GMT 48.483177 16.508041 12,550 148 422 -3008
2018-10-20 21:22:21 GMT 48.483177 16.508041 12,575 148 419 -2816
2018-10-20 21:22:18 GMT 48.487473 16.504000 12,725 148 422 -3072
2018-10-20 21:22:15 GMT 48.494492 16.497562 12,850 148 424 -3008
2018-10-20 21:22:12 GMT 48.497841 16.494453 13,050 148 428 -2560
2018-10-20 21:22:09 GMT 48.503941 16.488815 13,200 148 432 -3648
2018-10-20 21:22:06 GMT 48.507339 16.485708 13,250 148 432 -2880
2018-10-20 21:22:03 GMT 48.513840 16.479704 13,350 148 433 -3392
2018-10-20 21:22:00 GMT 48.519333 16.474703 13,725 148 436 -3520
2018-10-20 21:21:57 GMT 48.523499 16.470900 14,125 148 437 -3392
2018-10-20 21:21:54 GMT 48.530102 16.464891 14,050 148 440 -3008
2018-10-20 21:21:46 GMT 48.544464 16.451815 14,500 148 447 -3200
2018-10-20 21:21:43 GMT 48.547989 16.448576 19,100 148 446 -4032
2018-10-20 21:21:37 GMT 48.560669 16.436815 15,050 147 443 -4672
2018-10-20 21:21:33 GMT 48.566895 16.430969 15,325 148 442 -4736
2018-10-20 21:21:30 GMT 48.571060 16.427025 15,500 148 442 -4544
2018-10-20 21:21:27 GMT 48.576328 16.422174 15,650 148 443 -4480
2018-10-20 21:21:23 GMT 48.584755 16.414515 16,125 149 445 -5184
2018-10-20 21:21:16 GMT 48.604431 16.397375 16,850 150 448 -4864
2018-10-20 21:21:12 GMT 48.604431 16.397375 17,075 151 449 -4864
2018-10-20 21:21:09 GMT 48.607361 16.395052 17,200 153 449 -4928
2018-10-20 21:21:05 GMT 48.615646 16.389208 17,550 158 451 -4864
2018-10-20 21:21:02 GMT 48.629105 16.382235 18,025 162 453 -4736
2018-10-20 21:20:58 GMT 48.629105 16.382235 18,100 164 454 -4672
2018-10-20 21:20:55 GMT 48.636429 16.379559 18,375 168 455 -4608
2018-10-20 21:20:52 GMT 48.647278 16.376953 18,650 172 457 -4608
2018-10-20 21:20:49 GMT 48.647278 16.376953 18,775 174 458 -4672
2018-10-20 21:20:46 GMT 48.656166 16.375990 19,100 178 458 -5056
2018-10-20 21:20:42 GMT 48.668877 16.376135 19,500 182 459 -4992
2018-10-20 21:20:39 GMT 48.668877 16.376135 19,625 182 460 -4864
2018-10-20 21:20:35 GMT 48.678280 16.376713 20,025 183 466 -3648
2018-10-20 21:20:32 GMT 48.691265 16.377436 20,150 183 469 -3712
2018-10-20 21:20:29 GMT 48.691265 16.377436 20,300 183 472 -4416
2018-10-20 21:20:24 GMT 48.701294 16.377939 21,125 182 473 -4864
2018-10-20 21:20:21 GMT 48.708725 16.378302 20,975 182 475 -4672
2018-10-20 21:20:18 GMT 48.714916 16.378592 21,125 182 478 -3648
2018-10-20 21:20:15 GMT 48.720177 16.378807 21,275 182 478 -3648
2018-10-20 21:20:12 GMT 48.729492 16.379208 21,525 182 478 -3328
2018-10-20 21:20:08 GMT 48.737865 16.379532 21,700 182 480 -3264
2018-10-20 21:20:04 GMT 48.748528 16.379965 21,975 182 480 -3520
2018-10-20 21:20:01 GMT 48.752949 16.380182 22,225 182 481 -3264
2018-10-20 21:19:58 GMT 48.757828 16.380404 22,250 182 482 -3200
2018-10-20 21:19:55 GMT 48.766308 16.380760 22,425 182 482 -3136
2018-10-20 21:19:51 GMT 48.775200 16.381121 22,650 182 483 -3264
2018-10-20 21:19:48 GMT 48.781437 16.381338 22,750 182 483 -3264
2018-10-20 21:19:45 GMT 48.789047 16.381672 23,000 182 483 -3520
2018-10-20 21:19:40 GMT 48.799313 16.382133 23,225 182 485 -3008
2018-10-20 21:19:37 GMT 48.804714 16.382351 23,375 182 485 -2816
2018-10-20 21:19:34 GMT 48.813217 16.382729 23,550 182 487 -3200
2018-10-20 21:19:31 GMT 48.819534 16.382938 23,750 182 486 -4352
2018-10-20 21:19:28 GMT 48.836090 16.383722 24,400 182 479 -3712
2018-10-20 21:19:24 GMT 48.836090 16.383722 24,475 182 483 -4736
2018-10-20 21:19:21 GMT 48.841026 16.383940 24,475 182 482 -4608
2018-10-20 21:19:18 GMT 48.849449 16.384300 24,900 182 479 -3712
2018-10-20 21:19:14 GMT 48.864071 16.385023 25,150 182 479 -3712
2018-10-20 21:19:08 GMT 48.873825 16.385475 25,475 182 479 -3200
2018-10-20 21:19:03 GMT 48.883575 16.385967 25,675 182 482 -1664
2018-10-20 21:18:59 GMT 48.889847 16.386250 25,725 182 483 -1216
2018-10-20 21:18:56 GMT 48.896561 16.386541 25,775 182 486 -576
2018-10-20 21:18:52 GMT 48.907013 16.387024 25,750 182 496 -64
2018-10-20 21:18:49 GMT 48.914337 16.387445 25,775 182 498 -704
2018-10-20 21:18:46 GMT 48.931961 16.388363 26,125 182 502 -3392
2018-10-20 21:18:42 GMT 48.931961 16.388363 26,425 182 503 -2688
2018-10-20 21:18:39 GMT 48.937061 16.388565 26,325 182 502 -3392
2018-10-20 21:18:36 GMT 48.944000 16.388926 26,650 182 502 -3008
2018-10-20 21:18:33 GMT 48.950050 16.389290 26,575 182 503 -2560
2018-10-20 21:18:30 GMT 48.957962 16.389700 26,800 183 507 -1024
2018-10-20 21:18:27 GMT 48.964508 16.390053 26,800 183 508 -704
2018-10-20 21:18:24 GMT 48.972931 16.390474 26,825 183 511 -640
2018-10-20 21:18:21 GMT 48.986206 16.391249 26,875 183 515 -1408
2018-10-20 21:18:15 GMT 48.991928 16.391531 27,200 183 517 -3264
2018-10-20 21:18:12 GMT 49.000534 16.392096 27,225 183 516 -4480
2018-10-20 21:18:08 GMT 49.011932 16.392870 27,625 183 513 -4608
2018-10-20 21:18:04 GMT 49.020447 16.393503 27,875 184 511 -4224
2018-10-20 21:17:59 GMT 49.031330 16.394348 28,175 184 510 -3904
2018-10-20 21:17:56 GMT 49.040268 16.395123 28,325 184 509 -3904
2018-10-20 21:17:53 GMT 49.045898 16.395544 28,700 183 508 -3008
2018-10-20 21:17:49 GMT 49.054840 16.396227 28,775 183 509 -2624
2018-10-20 21:17:45 GMT 49.066105 16.397095 29,000 183 510 -3200
2018-10-20 21:17:41 GMT 49.073181 16.397657 29,125 183 510 -3584
2018-10-20 21:17:37 GMT 49.084492 16.398468 29,375 184 507 -4032
2018-10-20 21:17:34 GMT 49.090073 16.398926 29,625 184 506 -3648
2018-10-20 21:17:31 GMT 49.097580 16.399561 29,825 184 506 -3456
2018-10-20 21:17:28 GMT 49.106003 16.400265 29,975 184 506 -2752
2018-10-20 21:17:25 GMT 49.110672 16.400686 30,225 184 507 -2304
2018-10-20 21:17:22 GMT 49.119095 16.401390 30,250 184 507 -2432
2018-10-20 21:17:19 GMT 49.127518 16.402164 30,375 184 507 -2752
2018-10-20 21:17:16 GMT 49.132675 16.402660 30,450 184 507 -2752
2018-10-20 21:17:13 GMT 49.137379 16.403093 30,550 184 508 -2624
2018-10-20 21:17:10 GMT 49.144871 16.403744 30,700 184 508 -2240
2018-10-20 21:17:07 GMT 49.152878 16.404490 30,875 184 510 -3136
2018-10-20 21:17:04 GMT 49.168854 16.405968 31,075 184 509 -3072
2018-10-20 21:17:01 GMT 49.168854 16.405968 31,175 184 509 -2944
2018-10-20 21:16:56 GMT 49.185745 16.408152 31,575 187 510 -2560
2018-10-20 21:16:49 GMT 49.197334 16.410900 31,650 192 508 -2816
2018-10-20 21:16:46 GMT 49.203712 16.413141 31,850 195 507 -2880
2018-10-20 21:16:43 GMT 49.211815 16.416611 32,025 198 505 -2624
2018-10-20 21:16:40 GMT 49.216690 16.419067 32,125 201 504 -2560
2018-10-20 21:16:37 GMT 49.223648 16.423153 32,250 203 503 -2624
2018-10-20 21:16:34 GMT 49.230015 16.427452 32,375 207 500 -2560
2018-10-20 21:16:31 GMT 49.233322 16.429909 32,450 208 500 -2688
2018-10-20 21:16:28 GMT 49.247177 16.442377 32,675 213 494 -3136
2018-10-20 21:16:25 GMT 49.247177 16.442377 32,800 216 493 -2816
2018-10-20 21:16:22 GMT 49.252396 16.447943 32,925 220 489 -2048
2018-10-20 21:16:18 GMT 49.259808 16.456942 33,075 221 488 -2048
2018-10-20 21:16:12 GMT 49.269028 16.470097 33,650 236 474 -2304
2018-10-20 21:16:06 GMT 49.282654 16.495760 33,625 235 475 -2304
2018-10-20 21:16:02 GMT 49.282654 16.495760 33,775 237 473 -2368
2018-10-20 21:15:59 GMT 49.286671 16.505367 33,925 240 472 -2432
2018-10-20 21:15:56 GMT 49.292908 16.523508 34,000 245 466 -2304
2018-10-20 21:15:53 GMT 49.292908 16.523508 34,075 246 466 -2304
2018-10-20 21:15:50 GMT 49.295280 16.531244 34,125 246 467 -2368
2018-10-20 21:15:45 GMT 49.300552 16.548651 34,475 246 468 -2240
2018-10-20 21:15:42 GMT 49.303482 16.558228 34,450 246 468 -2240
2018-10-20 21:15:39 GMT 49.305103 16.563623 34,550 245 470 -2240
2018-10-20 21:15:35 GMT 49.308609 16.575060 34,675 246 471 -2304
2018-10-20 21:15:32 GMT 49.312462 16.587692 34,825 246 472 -2816
2018-10-20 21:15:29 GMT 49.314648 16.594994 34,875 246 471 -2304
2018-10-20 21:15:25 GMT 49.318279 16.607063 35,075 246 472 -2816
2018-10-20 21:15:22 GMT 49.320969 16.616186 35,600 246 471 -2880
2018-10-20 21:15:19 GMT 49.324173 16.627174 35,400 246 471 -2688
2018-10-20 21:15:13 GMT 49.328568 16.642408 35,725 247 471 -2816
2018-10-20 21:15:10 GMT 49.331131 16.651611 35,925 249 468 -3136
2018-10-20 21:15:06 GMT 49.334610 16.665203 35,950 251 467 -3136
2018-10-20 21:15:02 GMT 49.337585 16.678936 36,175 257 462 -1600
2018-10-20 21:14:59 GMT 49.339458 16.689606 36,300 257 460 -1664
2018-10-20 21:14:56 GMT 49.340652 16.697247 36,350 257 460 -1664
2018-10-20 21:14:53 GMT 49.341751 16.704220 36,400 257 461 -1664
2018-10-20 21:14:49 GMT 49.343788 16.717577 36,575 258 463 -1600
2018-10-20 21:14:46 GMT 49.345699 16.730297 36,650 258 464 -1664
2018-10-20 21:14:43 GMT 49.346741 16.737320 37,025 258 464 -1664
2018-10-20 21:14:40 GMT 49.348164 16.746923 36,825 258 464 -1728
2018-10-20 21:14:37 GMT 49.349514 16.755957 36,825 258 464 -1728
2018-10-20 21:14:33 GMT 49.351749 16.771280 37,000 258 462 -1856
2018-10-20 21:14:29 GMT 49.354935 16.794928 37,175 259 462 -1792
2018-10-20 21:14:26 GMT 49.354935 16.794928 37,200 260 461 -1664
2018-10-20 21:14:23 GMT 49.356079 16.805208 37,275 261 460 -1600
2018-10-20 21:14:20 GMT 49.356857 16.814222 37,350 265 457 -1408
2018-10-20 21:14:14 GMT 49.357521 16.834089 37,500 272 452 -1280
2018-10-20 21:14:08 GMT 49.357101 16.848112 37,575 276 448 -1152
2018-10-20 21:14:05 GMT 49.356220 16.859461 37,650 280 446 -1152
2018-10-20 21:14:02 GMT 49.355007 16.869289 37,700 282 444 -1152
2018-10-20 21:13:59 GMT 49.353333 16.879648 37,775 287 442 -1152
2018-10-20 21:13:56 GMT 49.351730 16.887396 37,800 290 439 -1216
2018-10-20 21:13:52 GMT 49.348816 16.898924 37,900 293 437 -1216
2018-10-20 21:13:49 GMT 49.346283 16.907255 37,975 299 433 -1088
2018-10-20 21:13:46 GMT 49.339226 16.925667 38,000 301 432 -832
2018-10-20 21:13:43 GMT 49.339226 16.925667 38,050 304 430 -320
2018-10-20 21:13:40 GMT 49.337631 16.929157 38,050 305 430 -64
2018-10-20 21:13:37 GMT 49.329163 16.945072 38,050 312 425 64
2018-10-20 21:13:29 GMT 49.317856 16.962538 38,050 316 424 -64
2018-10-20 21:13:25 GMT 49.317856 16.962538 38,050 316 424 0
2018-10-20 21:13:21 GMT 49.311447 16.972187 38,050 316 424 64
2018-10-20 21:13:18 GMT 49.306458 16.979794 38,050 316 424 64
2018-10-20 21:13:15 GMT 49.303665 16.984018 38,050 316 424 0
2018-10-20 21:13:12 GMT 49.300076 16.989489 38,050 316 424 -64
2018-10-20 21:13:09 GMT 49.295883 16.995850 38,050 316 423 -64
2018-10-20 21:13:06 GMT 49.290070 17.004667 38,050 316 423 -64
2018-10-20 21:13:03 GMT 49.285904 17.010990 38,050 316 424 -64
2018-10-20 21:13:00 GMT 49.282852 17.015654 38,050 316 423 -128
2018-10-20 21:12:57 GMT 49.277035 17.024471 38,050 316 422 -128
2018-10-20 21:12:53 GMT 49.272583 17.031202 38,050 316 422 0
2018-10-20 21:12:50 GMT 49.262604 17.046345 38,050 316 422 0
2018-10-20 21:12:46 GMT 49.262604 17.046345 38,050 316 422 64
2018-10-20 21:12:43 GMT 49.259018 17.051865 38,050 316 422 64
2018-10-20 21:12:39 GMT 49.253769 17.059866 38,050 316 422 64
2018-10-20 21:12:36 GMT 49.250172 17.065310 38,050 316 422 0
2018-10-20 21:12:33 GMT 49.244678 17.073694 38,050 316 422 0
2018-10-20 21:12:30 GMT 49.239395 17.081697 38,050 316 422 64
2018-10-20 21:12:26 GMT 49.234997 17.088438 38,050 316 422 64
2018-10-20 21:12:23 GMT 49.231705 17.093458 38,050 316 422 128
2018-10-20 21:12:20 GMT 49.226151 17.101810 38,050 316 422 64
2018-10-20 21:12:17 GMT 49.223686 17.105640 38,050 316 422 64
2018-10-20 21:12:14 GMT 49.218750 17.113178 38,050 316 422 0
2018-10-20 21:12:11 GMT 49.214329 17.119879 38,050 316 422 0
2018-10-20 21:12:08 GMT 49.209347 17.127468 38,050 315 421 0
2018-10-20 21:12:05 GMT 49.206600 17.131660 38,050 315 421 0
2018-10-20 21:12:02 GMT 49.198059 17.144657 38,050 315 421 0
2018-10-20 21:11:55 GMT 49.192867 17.152695 38,050 315 422 64
2018-10-20 21:11:52 GMT 49.188442 17.159416 38,050 315 422 64
2018-10-20 21:11:49 GMT 49.184071 17.166138 38,050 315 421 -128
2018-10-20 21:11:45 GMT 49.179134 17.173655 38,050 315 421 -64
2018-10-20 21:11:41 GMT 49.173889 17.181631 38,050 315 421 0
2018-10-20 21:11:38 GMT 49.164001 17.196774 38,050 315 422 64
2018-10-20 21:11:35 GMT 49.164001 17.196774 38,050 315 422 64
2018-10-20 21:11:32 GMT 49.156044 17.209000 38,050 315 422 0
2018-10-20 21:11:29 GMT 49.156044 17.209000 38,050 315 422 0
2018-10-20 21:11:26 GMT 49.153809 17.212324 38,050 315 421 64
2018-10-20 21:11:23 GMT 49.148876 17.219913 38,050 315 421 -64
2018-10-20 21:11:20 GMT 49.144451 17.226635 38,050 316 421 128
2018-10-20 21:11:13 GMT 49.134537 17.241741 38,050 316 422 128
2018-10-20 21:11:09 GMT 49.129303 17.249662 38,050 316 421 128
2018-10-20 21:11:06 GMT 49.126251 17.254316 38,025 316 422 128
2018-10-20 21:11:02 GMT 49.118225 17.266354 38,025 316 422 0
2018-10-20 21:10:59 GMT 49.112640 17.274733 38,025 316 422 -64
2018-10-20 21:10:53 GMT 49.106003 17.284735 38,050 316 422 0
2018-10-20 21:10:49 GMT 49.101562 17.291424 38,050 316 422 64
2018-10-20 21:10:46 GMT 49.097672 17.297270 38,050 316 422 64
2018-10-20 21:10:43 GMT 49.093525 17.303539 38,050 316 422 64
2018-10-20 21:10:40 GMT 49.090172 17.308525 38,025 316 422 64
2018-10-20 21:10:37 GMT 49.085751 17.315248 38,025 316 422 64
2018-10-20 21:10:34 GMT 49.081841 17.321030 38,025 316 422 64
2018-10-20 21:10:31 GMT 49.076256 17.329414 38,025 316 424 0
2018-10-20 21:10:28 GMT 49.072632 17.334875 38,025 316 424 -128
2018-10-20 21:10:25 GMT 49.069016 17.340300 38,025 316 424 -320
2018-10-20 21:10:22 GMT 49.064011 17.347845 38,050 316 424 -320
2018-10-20 21:10:18 GMT 49.058167 17.356709 38,075 316 423 -64
2018-10-20 21:10:15 GMT 49.055374 17.360863 38,050 316 423 128
2018-10-20 21:10:11 GMT 49.048462 17.371336 38,050 316 422 192
2018-10-20 21:10:08 GMT 49.043995 17.377987 38,050 316 423 0
2018-10-20 21:10:05 GMT 49.040688 17.383045 38,050 316 423 -64
2018-10-20 21:10:02 GMT 49.036221 17.389694 38,050 316 423 0
2018-10-20 21:09:58 GMT 49.030975 17.397625 38,050 316 423 0
2018-10-20 21:09:55 GMT 49.025700 17.405596 38,050 316 422 -128
2018-10-20 21:09:52 GMT 49.022903 17.409788 38,050 316 423 -128
2018-10-20 21:09:49 GMT 49.017876 17.417305 38,050 316 423 -128
2018-10-20 21:09:46 GMT 49.013966 17.423088 38,050 316 422 -64
2018-10-20 21:09:43 GMT 49.004517 17.437254 38,050 316 422 128
2018-10-20 21:09:40 GMT 49.004517 17.437254 38,050 316 422 128
2018-10-20 21:09:37 GMT 49.000900 17.442627 38,050 316 422 128
2018-10-20 21:09:34 GMT 48.997559 17.447626 38,025 316 422 0
2018-10-20 21:09:31 GMT 48.993668 17.453472 38,025 316 422 0
2018-10-20 21:09:27 GMT 48.988129 17.461782 38,025 316 422 0
2018-10-20 21:09:24 GMT 48.983093 17.469248 38,050 316 422 64
2018-10-20 21:09:21 GMT 48.979191 17.475128 38,050 316 422 0
2018-10-20 21:09:18 GMT 48.975002 17.481344 38,050 316 422 0
2018-10-20 21:09:15 GMT 48.970825 17.487558 38,050 316 422 -64
2018-10-20 21:09:12 GMT 48.966934 17.493404 38,050 316 422 0
2018-10-20 21:09:08 GMT 48.960251 17.503332 38,050 316 422 -64
2018-10-20 21:09:05 GMT 48.957504 17.507488 38,050 316 422 0
2018-10-20 21:09:02 GMT 48.953869 17.512930 38,050 316 422 64
2018-10-20 21:08:59 GMT 48.949726 17.519146 38,050 316 422 -128
2018-10-20 21:08:56 GMT 48.943863 17.527912 38,050 316 422 -128
2018-10-20 21:08:52 GMT 48.937500 17.537491 38,050 316 422 -128
2018-10-20 21:08:48 GMT 48.932220 17.545383 38,050 316 422 128
2018-10-20 21:08:45 GMT 48.929718 17.549179 38,050 316 422 128
2018-10-20 21:08:42 GMT 48.925827 17.554955 38,050 316 422 128
2018-10-20 21:08:38 GMT 48.918301 17.566271 38,050 316 424 64
2018-10-20 21:08:35 GMT 48.915508 17.570391 38,025 316 423 0
2018-10-20 21:08:32 GMT 48.911316 17.576647 38,050 316 424 -64
2018-10-20 21:08:29 GMT 48.907177 17.582968 38,050 316 424 -64
2018-10-20 21:08:26 GMT 48.902985 17.589256 38,050 316 424 128
2018-10-20 21:08:22 GMT 48.896561 17.598869 38,050 316 424 128
2018-10-20 21:08:19 GMT 48.893257 17.603855 38,050 316 424 128
2018-10-20 21:08:16 GMT 48.888786 17.610579 38,050 316 424 64
2018-10-20 21:08:13 GMT 48.884876 17.616432 38,050 316 425 0
2018-10-20 21:08:09 GMT 48.877899 17.626930 38,050 316 425 0
2018-10-20 21:08:06 GMT 48.874557 17.631929 38,025 316 425 0
2018-10-20 21:08:03 GMT 48.871719 17.636154 38,050 316 426 64
2018-10-20 21:08:00 GMT 48.866398 17.644115 38,050 316 426 64
2018-10-20 21:07:57 GMT 48.862488 17.649969 38,050 316 426 64
2018-10-20 21:07:54 GMT 48.857712 17.657072 38,025 316 426 64
2018-10-20 21:07:50 GMT 48.851826 17.665871 38,025 316 427 64
2018-10-20 21:07:45 GMT 48.845589 17.675051 38,025 316 427 -64
2018-10-20 21:07:42 GMT 48.839954 17.683361 38,050 316 427 -64
2018-10-20 21:07:39 GMT 48.837387 17.687143 38,050 316 427 -64
2018-10-20 21:07:36 GMT 48.834000 17.692074 38,050 316 427 -64
2018-10-20 21:07:33 GMT 48.827179 17.702072 38,050 316 427 -128
2018-10-20 21:07:30 GMT 48.823475 17.707502 38,050 316 427 -192
2018-10-20 21:07:27 GMT 48.820076 17.712490 38,050 316 427 -192
2018-10-20 21:07:24 GMT 48.815002 17.720009 38,075 316 427 -192
2018-10-20 21:07:20 GMT 48.810196 17.727074 38,075 316 427 -64
2018-10-20 21:07:17 GMT 48.804520 17.735384 38,075 316 427 0
2018-10-20 21:07:13 GMT 48.796600 17.747074 38,050 316 427 0
2018-10-20 21:07:10 GMT 48.796600 17.747074 38,075 316 425 -128
2018-10-20 21:07:05 GMT 48.787910 17.759977 38,075 316 425 -128
2018-10-20 21:07:01 GMT 48.782322 17.768362 38,075 315 424 0
2018-10-20 21:06:58 GMT 48.777901 17.775084 38,075 315 424 0
2018-10-20 21:06:55 GMT 48.775108 17.779276 38,075 315 423 64
2018-10-20 21:06:52 GMT 48.771244 17.785057 38,075 316 422 128
2018-10-20 21:06:49 GMT 48.766983 17.791161 38,050 318 422 192
2018-10-20 21:06:46 GMT 48.762955 17.796795 38,025 320 422 128
2018-10-20 21:06:43 GMT 48.758579 17.802622 38,025 321 422 64
2018-10-20 21:06:40 GMT 48.752064 17.811007 38,025 321 422 128
2018-10-20 21:06:37 GMT 48.748077 17.815809 38,025 322 422 128
2018-10-20 21:06:34 GMT 48.742538 17.822289 38,025 323 422 64
2018-10-20 21:06:31 GMT 48.740334 17.824812 38,025 324 422 0
2018-10-20 21:06:28 GMT 48.735256 17.830305 38,025 327 422 0
2018-10-20 21:06:24 GMT 48.728439 17.837219 38,050 328 423 -64
2018-10-20 21:06:21 GMT 48.723480 17.841942 38,050 329 422 -128
2018-10-20 21:06:17 GMT 48.716869 17.848158 38,050 329 422 64
2018-10-20 21:06:14 GMT 48.711868 17.852783 38,050 329 422 192
2018-10-20 21:06:09 GMT 48.702576 17.861446 38,050 329 422 192
2018-10-20 21:06:06 GMT 48.698593 17.865177 38,025 329 423 128
2018-10-20 21:06:03 GMT 48.693283 17.870178 38,025 329 423 -64
2018-10-20 21:06:00 GMT 48.688938 17.874178 38,025 329 423 -64
2018-10-20 21:05:56 GMT 48.681259 17.881262 38,050 329 423 -64
2018-10-20 21:05:53 GMT 48.676231 17.885887 38,050 329 423 -64
2018-10-20 21:05:50 GMT 48.672924 17.889067 38,050 329 424 64
2018-10-20 21:05:47 GMT 48.666595 17.894968 38,050 329 424 -128
2018-10-20 21:05:44 GMT 48.661926 17.899334 38,050 329 424 -128
2018-10-20 21:05:41 GMT 48.656910 17.903955 38,050 329 424 192
2018-10-20 21:05:38 GMT 48.651215 17.909195 38,050 329 424 192
2018-10-20 21:05:34 GMT 48.644531 17.915392 38,025 329 424 192
2018-10-20 21:05:29 GMT 48.636520 17.922714 38,025 329 424 64
2018-10-20 21:05:26 GMT 48.631485 17.927362 38,050 329 424 -64
2018-10-20 21:05:23 GMT 48.618088 17.939663 38,050 329 425 -192
2018-10-20 21:05:19 GMT 48.618088 17.939663 38,050 329 425 -192
2018-10-20 21:05:16 GMT 48.613384 17.943998 38,050 329 424 -192
2018-10-20 21:05:13 GMT 48.609383 17.947758 38,050 329 424 -64
2018-10-20 21:05:10 GMT 48.605377 17.951443 38,050 329 424 -64
2018-10-20 21:05:06 GMT 48.592018 17.963802 38,050 329 424 64
2018-10-20 21:05:03 GMT 48.592018 17.963802 38,050 329 424 128
2018-10-20 21:05:00 GMT 48.587677 17.967789 38,050 329 424 128
2018-10-20 21:04:56 GMT 48.581314 17.973633 38,050 329 423 128
2018-10-20 21:04:52 GMT 48.573257 17.980932 38,075 329 423 64
2018-10-20 21:04:47 GMT 48.566551 17.987078 38,025 329 424 -128
2018-10-20 21:04:44 GMT 48.562180 17.991028 38,075 329 423 -256
2018-10-20 21:04:41 GMT 48.555847 17.996834 38,050 329 423 -256
2018-10-20 21:04:36 GMT 48.546799 18.005114 38,075 329 422 -128
2018-10-20 21:04:31 GMT 48.539787 18.011507 38,050 329 421 192
2018-10-20 21:04:28 GMT 48.535828 18.015121 38,050 329 420 320
2018-10-20 21:04:25 GMT 48.529869 18.020615 38,050 329 419 256
2018-10-20 21:04:21 GMT 48.522560 18.027336 38,025 329 419 0
2018-10-20 21:04:17 GMT 48.515625 18.033705 38,050 329 418 -128
2018-10-20 21:04:14 GMT 48.511047 18.037931 38,050 329 418 -192
2018-10-20 21:04:11 GMT 48.505737 18.042789 38,050 329 418 128
2018-10-20 21:04:05 GMT 48.495850 18.051874 38,050 329 417 128
2018-10-20 21:04:02 GMT 48.492256 18.055235 38,050 329 417 192
2018-10-20 21:03:59 GMT 48.485691 18.061234 38,025 329 417 192
2018-10-20 21:03:53 GMT 48.477825 18.068607 38,025 329 416 128
2018-10-20 21:03:50 GMT 48.470901 18.074974 38,050 329 418 0
2018-10-20 21:03:47 GMT 48.467304 18.078293 38,025 329 417 -128
2018-10-20 21:03:44 GMT 48.460373 18.084694 38,050 329 418 -128
2018-10-20 21:03:41 GMT 48.457764 18.087088 38,050 329 418 -64
2018-10-20 21:03:37 GMT 48.450485 18.093779 38,050 329 417 0
2018-10-20 21:03:32 GMT 48.442261 18.101349 38,050 329 417 64
2018-10-20 21:03:29 GMT 48.436707 18.106525 38,050 329 418 64
2018-10-20 21:03:26 GMT 48.432762 18.110167 38,050 329 418 64
2018-10-20 21:03:23 GMT 48.427826 18.114794 38,025 329 418 0
2018-10-20 21:03:20 GMT 48.423870 18.118406 38,025 329 418 0
2018-10-20 21:03:16 GMT 48.414963 18.126667 38,050 329 419 -64
2018-10-20 21:03:13 GMT 48.406448 18.134695 38,050 328 418 -64
2018-10-20 21:03:05 GMT 48.399216 18.141457 38,050 329 419 0
2018-10-20 21:03:02 GMT 48.391983 18.148216 38,050 329 419 64
2018-10-20 21:02:59 GMT 48.388733 18.151245 38,050 329 419 128
2018-10-20 21:02:55 GMT 48.379833 18.159533 38,050 329 419 64
2018-10-20 21:02:51 GMT 48.374863 18.164062 38,025 329 420 0
2018-10-20 21:02:47 GMT 48.368565 18.169798 38,025 329 420 -64
2018-10-20 21:02:44 GMT 48.363911 18.174061 38,050 329 420 -64
2018-10-20 21:02:41 GMT 48.357605 18.179768 38,050 329 421 -64
2018-10-20 21:02:38 GMT 48.354950 18.182232 38,050 329 421 -64
2018-10-20 21:02:35 GMT 48.342682 18.193432 38,050 329 420 -64
2018-10-20 21:02:32 GMT 48.342682 18.193432 38,050 329 420 -64
2018-10-20 21:02:28 GMT 48.337692 18.198008 38,050 329 421 0
2018-10-20 21:02:25 GMT 48.332069 18.203190 38,050 329 421 64
2018-10-20 21:02:22 GMT 48.326065 18.208611 38,050 329 420 128
2018-10-20 21:02:19 GMT 48.321716 18.212515 38,025 329 421 64
2018-10-20 21:02:16 GMT 48.316753 18.217068 38,050 329 422 -64
2018-10-20 21:02:13 GMT 48.312054 18.221258 38,050 329 421 -64
2018-10-20 21:02:09 GMT 48.303394 18.229065 38,050 329 422 -64
2018-10-20 21:02:06 GMT 48.299389 18.232752 38,050 329 422 -64
2018-10-20 21:02:03 GMT 48.294342 18.237234 38,050 329 422 0
2018-10-20 21:02:00 GMT 48.289673 18.241461 38,050 329 421 0
2018-10-20 21:01:57 GMT 48.285332 18.245399 38,050 329 423 128
2018-10-20 21:01:54 GMT 48.280289 18.249910 38,050 329 425 -192
2018-10-20 21:01:51 GMT 48.273273 18.256313 38,050 329 424 128
2018-10-20 21:01:47 GMT 48.269577 18.259628 38,025 329 424 128
2018-10-20 21:01:44 GMT 48.264908 18.263926 38,050 329 424 -64
2018-10-20 21:01:41 GMT 48.259506 18.268785 38,050 329 425 -192
2018-10-20 21:01:37 GMT 48.252464 18.275251 38,050 329 425 -192
2018-10-20 21:01:34 GMT 48.247112 18.280167 38,050 329 425 0
2018-10-20 21:01:31 GMT 48.242409 18.284430 38,050 329 425 64
2018-10-20 21:01:27 GMT 48.235008 18.291151 38,050 329 425 128
2018-10-20 21:01:24 GMT 48.228306 18.297297 38,025 329 426 128
2018-10-20 21:01:21 GMT 48.225605 18.299753 38,025 329 426 0
2018-10-20 21:01:18 GMT 48.218853 18.305824 38,050 329 426 -192
2018-10-20 21:01:15 GMT 48.214851 18.309511 38,050 329 426 -128
2018-10-20 21:01:12 GMT 48.202747 18.320642 38,050 329 426 -64
2018-10-20 21:01:09 GMT 48.202747 18.320642 38,050 329 426 64
2018-10-20 21:01:06 GMT 48.199394 18.323677 38,050 329 426 64
2018-10-20 21:01:03 GMT 48.192993 18.329491 38,050 329 426 -64
2018-10-20 21:00:59 GMT 48.187943 18.334085 38,050 329 427 0
2018-10-20 21:00:56 GMT 48.182217 18.339291 38,050 329 427 0
2018-10-20 21:00:53 GMT 48.176491 18.344494 38,050 329 427 -64
2018-10-20 21:00:50 GMT 48.173447 18.347239 38,050 329 426 128
2018-10-20 21:00:46 GMT 48.164341 18.355480 38,050 329 426 64
2018-10-20 21:00:43 GMT 48.159641 18.359774 38,050 329 426 64
2018-10-20 21:00:40 GMT 48.156242 18.362803 38,050 329 427 64
2018-10-20 21:00:37 GMT 48.151199 18.367355 38,050 329 427 64
2018-10-20 21:00:34 GMT 48.145798 18.372231 38,050 329 427 0
2018-10-20 21:00:31 GMT 48.140694 18.376818 38,050 329 427 -64
2018-10-20 21:00:28 GMT 48.134308 18.382599 38,050 329 427 -128
2018-10-20 21:00:25 GMT 48.130219 18.386253 38,050 329 427 128
2018-10-20 21:00:22 GMT 48.119789 18.395691 38,050 329 427 0
2018-10-20 21:00:19 GMT 48.119789 18.395691 38,050 329 427 128
2018-10-20 21:00:16 GMT 48.115742 18.399424 38,050 329 427 128
2018-10-20 21:00:12 GMT 48.109642 18.404917 38,050 329 427 128
2018-10-20 21:00:09 GMT 48.103592 18.410410 38,050 329 427 -128
2018-10-20 21:00:06 GMT 48.098511 18.415009 38,050 329 427 -64
2018-10-20 21:00:02 GMT 48.090775 18.422012 38,050 329 428 0
2018-10-20 20:59:59 GMT 48.086040 18.426254 38,050 329 428 64
2018-10-20 20:59:55 GMT 48.077892 18.433580 38,050 329 427 0
2018-10-20 20:59:52 GMT 48.069794 18.440905 38,050 329 428 -64
2018-10-20 20:59:49 GMT 48.069794 18.440905 38,050 330 427 -64
2018-10-20 20:59:46 GMT 48.063354 18.446663 38,050 329 428 -64
2018-10-20 20:59:43 GMT 48.058296 18.451256 38,050 329 428 0
2018-10-20 20:59:40 GMT 48.054897 18.454285 38,050 329 428 64
2018-10-20 20:59:37 GMT 48.049118 18.459435 38,050 329 428 0
2018-10-20 20:59:33 GMT 48.043400 18.464638 38,050 329 428 0
2018-10-20 20:59:30 GMT 48.038315 18.469185 38,050 329 428 0
2018-10-20 20:59:27 GMT 48.027466 18.478935 38,050 329 428 -64
2018-10-20 20:59:21 GMT 48.021378 18.484428 38,050 329 428 -64
2018-10-20 20:59:18 GMT 48.016308 18.489004 38,050 329 428 -64
2018-10-20 20:59:15 GMT 48.011215 18.493629 38,050 329 428 -64
2018-10-20 20:59:11 GMT 48.001362 18.502455 38,050 329 428 0
2018-10-20 20:59:08 GMT 47.996613 18.506750 38,050 329 428 0
2018-10-20 20:59:02 GMT 47.989864 18.512808 38,050 329 428 0
2018-10-20 20:58:59 GMT 47.984756 18.517387 38,050 329 428 0
2018-10-20 20:58:56 GMT 47.979675 18.521988 38,050 329 428 -64
2018-10-20 20:58:53 GMT 47.974968 18.526258 38,050 329 428 64
2018-10-20 20:58:48 GMT 47.967518 18.532949 38,050 329 428 0
2018-10-20 20:58:44 GMT 47.959030 18.540596 38,050 329 428 64
2018-10-20 20:58:41 GMT 47.953629 18.545471 38,050 329 428 64
2018-10-20 20:58:35 GMT 47.944153 18.553986 38,025 329 428 64
2018-10-20 20:58:32 GMT 47.940079 18.557693 38,025 329 428 0
2018-10-20 20:58:28 GMT 47.932617 18.564354 38,050 329 428 0
2018-10-20 20:58:25 GMT 47.928230 18.568373 38,050 329 428 0
2018-10-20 20:58:22 GMT 47.922783 18.573233 38,050 329 428 -64
2018-10-20 20:58:19 GMT 47.918381 18.577194 38,050 329 428 -64
2018-10-20 20:58:16 GMT 47.910278 18.584473 38,050 329 428 -64
2018-10-20 20:58:13 GMT 47.907188 18.587248 38,050 329 428 64
2018-10-20 20:58:07 GMT 47.897038 18.596333 38,050 329 428 0
2018-10-20 20:58:03 GMT 47.888580 18.603973 38,050 329 428 64
2018-10-20 20:58:00 GMT 47.884552 18.607681 38,050 329 428 64
2018-10-20 20:57:57 GMT 47.878418 18.613165 38,050 329 428 64
2018-10-20 20:57:54 GMT 47.874043 18.617107 38,050 329 428 0
2018-10-20 20:57:51 GMT 47.870316 18.620453 38,050 329 428 0
2018-10-20 20:57:48 GMT 47.865196 18.624994 38,050 329 428 -64
2018-10-20 20:57:45 GMT 47.860451 18.629221 38,050 329 428 -128
2018-10-20 20:57:42 GMT 47.855747 18.633446 38,050 329 428 -64
2018-10-20 20:57:37 GMT 47.845917 18.642288 38,050 329 428 0
2018-10-20 20:57:34 GMT 47.839455 18.648024 38,050 329 428 0
2018-10-20 20:57:31 GMT 47.836754 18.650490 38,050 329 427 64
2018-10-20 20:57:28 GMT 47.825954 18.660137 38,050 329 427 64
2018-10-20 20:57:25 GMT 47.825954 18.660137 38,050 329 427 64
2018-10-20 20:57:22 GMT 47.821903 18.663729 38,050 330 425 -64
2018-10-20 20:57:19 GMT 47.814148 18.670647 38,050 330 425 0
2018-10-20 20:57:13 GMT 47.805702 18.678165 38,050 330 425 0
2018-10-20 20:57:09 GMT 47.800304 18.682955 38,050 330 425 -128
2018-10-20 20:57:06 GMT 47.794556 18.688019 38,050 330 425 -128
2018-10-20 20:57:03 GMT 47.788155 18.693729 38,050 330 425 64
2018-10-20 20:57:00 GMT 47.783798 18.697632 38,050 330 425 0
2018-10-20 20:56:56 GMT 47.778049 18.702745 38,050 330 425 0
2018-10-20 20:56:53 GMT 47.763248 18.715843 38,050 330 424 -64
2018-10-20 20:56:48 GMT 47.763248 18.715843 38,025 330 425 128
2018-10-20 20:56:41 GMT 47.752399 18.725351 38,050 330 424 -64
2018-10-20 20:56:38 GMT 47.745987 18.731003 38,050 330 425 -64
2018-10-20 20:56:35 GMT 47.737198 18.738693 38,050 330 424 -64
2018-10-20 20:56:32 GMT 47.737198 18.738693 38,050 330 424 -64
2018-10-20 20:56:27 GMT 47.728455 18.746384 38,050 330 424 0
2018-10-20 20:56:24 GMT 47.723740 18.750504 38,050 330 421 -64
2018-10-20 20:56:21 GMT 47.719395 18.754366 38,050 330 421 -64
2018-10-20 20:56:18 GMT 47.712341 18.760529 38,050 330 419 0
2018-10-20 20:56:15 GMT 47.707336 18.764931 38,050 330 419 0
2018-10-20 20:56:11 GMT 47.701660 18.769859 38,050 330 418 128
2018-10-20 20:56:08 GMT 47.694675 18.775988 38,050 330 417 128
2018-10-20 20:56:04 GMT 47.689041 18.780991 38,050 330 416 64
2018-10-20 20:56:00 GMT 47.677185 18.791428 38,025 330 415 64
2018-10-20 20:55:57 GMT 47.677185 18.791428 38,025 330 414 128
2018-10-20 20:55:54 GMT 47.673542 18.794579 38,025 330 414 128
2018-10-20 20:55:50 GMT 47.667938 18.799530 38,025 330 414 0
2018-10-20 20:55:46 GMT 47.660065 18.806602 38,025 329 414 -64
2018-10-20 20:55:43 GMT 47.656456 18.809792 38,050 329 415 -64
2018-10-20 20:55:40 GMT 47.648590 18.816833 38,050 329 415 -192
2018-10-20 20:55:36 GMT 47.641708 18.823082 38,050 329 415 -128
2018-10-20 20:55:33 GMT 47.639420 18.825144 38,075 329 414 -64
2018-10-20 20:55:30 GMT 47.633835 18.830072 38,075 329 414 0
2018-10-20 20:55:26 GMT 47.626617 18.836554 38,050 329 414 64
2018-10-20 20:55:23 GMT 47.622379 18.840357 38,050 329 414 64
2018-10-20 20:55:18 GMT 47.613861 18.847961 38,050 329 414 64
2018-10-20 20:55:15 GMT 47.609299 18.852118 38,050 329 415 64
2018-10-20 20:55:12 GMT 47.605042 18.855972 38,050 329 415 64
2018-10-20 20:55:08 GMT 47.597523 18.862680 38,025 329 415 64
2018-10-20 20:55:05 GMT 47.593231 18.866547 38,025 329 415 192
2018-10-20 20:55:02 GMT 47.588303 18.870920 38,025 329 415 256
2018-10-20 20:54:57 GMT 47.580093 18.878220 38,025 329 415 192
2018-10-20 20:54:54 GMT 47.575130 18.882610 38,025 330 417 -128
2018-10-20 20:54:50 GMT 47.568474 18.888456 38,025 330 418 -64
2018-10-20 20:54:47 GMT 47.562149 18.894012 38,025 330 419 0
2018-10-20 20:54:44 GMT 47.558853 18.896965 38,050 330 420 128
2018-10-20 20:54:41 GMT 47.554184 18.901016 38,025 330 419 128
2018-10-20 20:54:37 GMT 47.547501 18.906853 38,025 330 421 -192
2018-10-20 20:54:34 GMT 47.541504 18.912140 38,050 330 421 -128
2018-10-20 20:54:30 GMT 47.536148 18.916878 38,050 330 422 -64
2018-10-20 20:54:27 GMT 47.529091 18.923035 38,050 330 421 0
2018-10-20 20:54:24 GMT 47.524387 18.927118 38,050 330 423 -192
2018-10-20 20:54:20 GMT 47.517639 18.933035 38,050 330 423 -256
2018-10-20 20:54:17 GMT 47.506233 18.943035 38,075 330 422 -192
2018-10-20 20:54:14 GMT 47.506233 18.943035 38,075 330 423 256
2018-10-20 20:54:10 GMT 47.501484 18.947191 38,050 330 424 256
2018-10-20 20:54:07 GMT 47.495758 18.952261 38,025 330 425 64
2018-10-20 20:54:03 GMT 47.489044 18.958145 38,050 330 425 -128
2018-10-20 20:53:59 GMT 47.482632 18.963812 38,050 330 425 -128
2018-10-20 20:53:56 GMT 47.477230 18.968599 38,050 330 426 -128
2018-10-20 20:53:53 GMT 47.471512 18.973595 38,050 330 425 128
2018-10-20 20:53:48 GMT 47.464428 18.979868 38,050 330 426 -64
2018-10-20 20:53:42 GMT 47.445480 18.996489 38,050 330 426 0
2018-10-20 20:53:37 GMT 47.445480 18.996489 38,050 330 426 192
2018-10-20 20:53:34 GMT 47.441433 19.000080 38,050 330 426 192
2018-10-20 20:53:31 GMT 47.430584 19.009586 38,025 330 427 -128
2018-10-20 20:53:28 GMT 47.430584 19.009586 38,025 330 427 -128
2018-10-20 20:53:24 GMT 47.424160 19.015221 38,075 330 426 0
2018-10-20 20:53:21 GMT 47.418388 19.020222 38,075 330 426 0
2018-10-20 20:53:18 GMT 47.413639 19.024378 38,075 330 426 256
2018-10-20 20:53:14 GMT 47.406193 19.030926 38,050 330 426 64
2018-10-20 20:53:11 GMT 47.401108 19.035393 38,050 330 426 0
2018-10-20 20:53:07 GMT 47.395660 19.040131 38,050 330 428 0
2018-10-20 20:53:02 GMT 47.384766 19.049606 38,050 330 428 0
2018-10-20 20:52:58 GMT 47.378262 19.055292 38,050 330 429 0
2018-10-20 20:52:53 GMT 47.371418 19.061279 38,025 330 437 128
2018-10-20 20:52:50 GMT 47.364483 19.067335 38,050 330 437 128
2018-10-20 20:52:44 GMT 47.355450 19.075224 38,050 330 438 0
2018-10-20 20:52:41 GMT 47.341141 19.087715 38,050 330 438 -64
2018-10-20 20:52:36 GMT 47.341141 19.087715 38,050 330 438 0
2018-10-20 20:52:33 GMT 47.334549 19.093464 38,050 330 438 0
2018-10-20 20:52:30 GMT 47.331059 19.096493 38,050 330 437 0
2018-10-20 20:52:25 GMT 47.322723 19.103815 38,050 330 436 0
2018-10-20 20:52:21 GMT 47.314087 19.111404 38,050 330 435 128
2018-10-20 20:52:15 GMT 47.305115 19.119232 38,050 330 433 -64
2018-10-20 20:52:10 GMT 47.296829 19.126442 38,050 330 432 -64
2018-10-20 20:52:07 GMT 47.290649 19.131798 38,050 330 431 0
2018-10-20 20:52:04 GMT 47.286228 19.135719 38,050 330 430 -64
2018-10-20 20:52:00 GMT 47.278687 19.142267 38,050 330 431 -64
2018-10-20 20:51:54 GMT 47.269455 19.150337 38,050 330 430 -128
2018-10-20 20:51:51 GMT 47.261600 19.157127 38,075 330 429 64
2018-10-20 20:51:47 GMT 47.256805 19.161283 38,050 330 427 128
2018-10-20 20:51:42 GMT 47.248993 19.168121 38,050 330 427 128
2018-10-20 20:51:39 GMT 47.243591 19.172859 38,050 330 425 0
2018-10-20 20:51:36 GMT 47.238510 19.177271 38,050 330 425 -128
2018-10-20 20:51:33 GMT 47.234116 19.181099 38,050 330 424 0
2018-10-20 20:51:30 GMT 47.226639 19.187551 38,050 330 424 128
2018-10-20 20:51:26 GMT 47.219925 19.193390 38,050 330 423 128
2018-10-20 20:51:21 GMT 47.211555 19.200722 38,025 330 423 64
2018-10-20 20:51:17 GMT 47.206158 19.205441 38,025 330 423 64
2018-10-20 20:51:14 GMT 47.202106 19.208961 38,025 330 423 64
2018-10-20 20:51:11 GMT 47.197083 19.213303 38,025 330 423 0
2018-10-20 20:51:08 GMT 47.185303 19.223539 38,025 330 424 -192
2018-10-20 20:51:05 GMT 47.185303 19.223539 38,050 330 423 64
2018-10-20 20:51:00 GMT 47.176502 19.231146 38,050 330 424 128
2018-10-20 20:50:55 GMT 47.168060 19.238365 38,025 330 424 64
2018-10-20 20:50:51 GMT 47.163345 19.242416 38,025 330 423 64
2018-10-20 20:50:48 GMT 47.151169 19.252853 38,050 330 423 -64
2018-10-20 20:50:45 GMT 47.151169 19.252853 38,050 330 423 -64
2018-10-20 20:50:41 GMT 47.146454 19.256905 38,050 330 425 0
2018-10-20 20:50:38 GMT 47.141357 19.261288 38,050 330 425 0
2018-10-20 20:50:34 GMT 47.131859 19.269527 38,050 330 430 64
2018-10-20 20:50:29 GMT 47.126038 19.274551 38,025 330 433 -64
2018-10-20 20:50:26 GMT 47.118439 19.281143 38,050 330 438 -64
2018-10-20 20:50:22 GMT 47.113239 19.285654 38,050 330 437 -128
2018-10-20 20:50:19 GMT 47.107315 19.290825 38,075 330 438 0
2018-10-20 20:50:15 GMT 47.100670 19.296499 38,025 330 438 128
2018-10-20 20:50:12 GMT 47.095783 19.300795 38,050 330 438 64
2018-10-20 20:50:08 GMT 47.088799 19.306852 38,050 330 438 0
2018-10-20 20:50:05 GMT 47.082561 19.312275 38,050 330 438 -64
2018-10-20 20:50:01 GMT 47.070690 19.322557 38,050 330 438 -64
2018-10-20 20:49:58 GMT 47.070690 19.322557 38,050 330 438 0
2018-10-20 20:49:52 GMT 47.058819 19.332767 38,050 330 437 0
2018-10-20 20:49:49 GMT 47.051140 19.339388 38,050 330 438 0
2018-10-20 20:49:42 GMT 47.043133 19.346291 38,050 330 438 64
2018-10-20 20:49:38 GMT 47.034428 19.353825 38,050 330 438 64
2018-10-20 20:49:33 GMT 47.027817 19.359461 38,050 330 438 -64
2018-10-20 20:49:28 GMT 47.018364 19.367628 38,050 330 437 -64
2018-10-20 20:49:21 GMT 47.007568 19.376930 38,050 330 437 64
2018-10-20 20:49:18 GMT 47.001652 19.382067 38,050 330 437 0
2018-10-20 20:49:15 GMT 46.996067 19.386854 38,050 330 437 0
2018-10-20 20:49:12 GMT 46.990154 19.391926 38,050 330 437 64
2018-10-20 20:49:06 GMT 46.980377 19.400276 38,050 330 437 64
2018-10-20 20:48:59 GMT 46.966785 19.411926 38,050 330 437 128
2018-10-20 20:48:56 GMT 46.963669 19.414627 38,050 330 437 128
2018-10-20 20:48:53 GMT 46.957054 19.420237 38,050 330 436 0
2018-10-20 20:48:48 GMT 46.950073 19.426224 38,050 330 436 64
2018-10-20 20:48:45 GMT 46.944855 19.430626 38,050 330 436 64
2018-10-20 20:48:41 GMT 46.934757 19.439251 38,050 330 436 -64
2018-10-20 20:48:38 GMT 46.930206 19.443123 38,050 330 436 -64
2018-10-20 20:48:35 GMT 46.926376 19.446436 38,050 330 436 -128
2018-10-20 20:48:30 GMT 46.917671 19.453829 38,050 330 435 0
2018-10-20 20:48:24 GMT 46.905476 19.464182 38,050 330 436 128
2018-10-20 20:48:19 GMT 46.899563 19.469252 38,025 330 436 -64
2018-10-20 20:48:14 GMT 46.889832 19.477592 38,050 330 436 -64
2018-10-20 20:48:11 GMT 46.882874 19.483498 38,050 330 436 0
2018-10-20 20:48:07 GMT 46.877312 19.488338 38,050 330 435 64
2018-10-20 20:48:04 GMT 46.870377 19.494209 38,050 330 436 64
2018-10-20 20:47:58 GMT 46.861996 19.501350 38,050 330 435 -128
2018-10-20 20:47:55 GMT 46.852982 19.508972 38,050 330 435 0
2018-10-20 20:47:48 GMT 46.844307 19.516388 38,050 330 435 128
2018-10-20 20:47:45 GMT 46.838020 19.521744 38,050 330 435 64
2018-10-20 20:47:38 GMT 46.825871 19.532181 38,050 330 436 -128
2018-10-20 20:47:32 GMT 46.817211 19.539597 38,050 330 435 -128
2018-10-20 20:47:27 GMT 46.807484 19.547905 38,050 330 436 0
2018-10-20 20:47:24 GMT 46.802307 19.552382 38,050 330 436 0
2018-10-20 20:47:21 GMT 46.798828 19.555328 38,050 330 435 0
2018-10-20 20:47:15 GMT 46.786674 19.565758 38,050 330 436 64
2018-10-20 20:47:11 GMT 46.781479 19.570269 38,050 330 436 64
2018-10-20 20:47:05 GMT 46.770008 19.580040 38,050 330 436 -64
2018-10-20 20:47:01 GMT 46.762711 19.586279 38,050 330 436 -64
2018-10-20 20:46:55 GMT 46.752644 19.594872 38,050 330 436 0
2018-10-20 20:46:51 GMT 46.744312 19.602013 38,050 330 436 0
2018-10-20 20:46:42 GMT 46.730392 19.613823 38,050 330 436 -64
2018-10-20 20:46:39 GMT 46.726204 19.617325 38,050 330 435 0
2018-10-20 20:46:33 GMT 46.715359 19.626457 38,050 330 435 0
2018-10-20 20:46:30 GMT 46.708050 19.632706 38,050 330 436 -128
2018-10-20 20:46:24 GMT 46.697937 19.641277 38,050 330 435 -64
2018-10-20 20:46:19 GMT 46.689938 19.648018 38,050 330 436 0
2018-10-20 20:46:11 GMT 46.676720 19.659279 38,050 330 436 0
2018-10-20 20:46:08 GMT 46.671524 19.663719 38,050 330 436 0
2018-10-20 20:45:59 GMT 46.656189 19.676716 38,050 330 435 0
2018-10-20 20:45:55 GMT 46.648865 19.682878 38,050 330 436 -64
2018-10-20 20:45:50 GMT 46.634262 19.695328 38,050 330 436 64
2018-10-20 20:45:47 GMT 46.634262 19.695328 38,050 330 436 64
2018-10-20 20:45:40 GMT 46.622810 19.705147 38,050 330 436 -64
2018-10-20 20:45:36 GMT 46.615860 19.711014 38,050 330 436 0
2018-10-20 20:45:29 GMT 46.604095 19.721062 38,050 330 436 0
2018-10-20 20:45:25 GMT 46.596451 19.727627 38,050 330 436 -64
2018-10-20 20:45:19 GMT 46.585327 19.737072 38,050 330 435 -64
2018-10-20 20:45:16 GMT 46.579426 19.742020 38,050 330 435 0
2018-10-20 20:45:08 GMT 46.560616 19.757812 38,050 330 435 0
2018-10-20 20:45:04 GMT 46.560616 19.757812 38,050 330 435 0
2018-10-20 20:44:59 GMT 46.550842 19.766052 38,050 330 435 0
2018-10-20 20:44:56 GMT 46.545273 19.770700 38,050 330 435 -64
2018-10-20 20:44:48 GMT 46.530685 19.783012 38,050 330 435 -64
2018-10-20 20:44:45 GMT 46.525795 19.787132 38,050 330 435 -64
2018-10-20 20:44:42 GMT 46.521286 19.790932 38,050 330 435 0
2018-10-20 20:44:37 GMT 46.510155 19.800385 38,050 330 435 64
2018-10-20 20:44:32 GMT 46.503937 19.805670 38,050 330 435 64
2018-10-20 20:44:27 GMT 46.493488 19.814529 38,050 330 436 0
2018-10-20 20:44:24 GMT 46.490707 19.816856 38,050 330 436 -64
2018-10-20 20:44:21 GMT 46.485809 19.821011 38,050 330 436 0
2018-10-20 20:44:16 GMT 46.475372 19.829786 38,050 330 435 64
2018-10-20 20:44:13 GMT 46.469467 19.834785 38,050 330 436 0
2018-10-20 20:44:10 GMT 46.466675 19.837120 38,050 330 436 0
2018-10-20 20:44:07 GMT 46.461090 19.841858 38,050 330 436 -64
2018-10-20 20:44:04 GMT 46.454453 19.847404 38,050 331 436 0
2018-10-20 20:44:00 GMT 46.449554 19.851492 38,050 330 437 -64
2018-10-20 20:43:56 GMT 46.440811 19.858793 38,050 330 437 -64
2018-10-20 20:43:53 GMT 46.436234 19.862543 38,050 331 437 -64
2018-10-20 20:43:49 GMT 46.430317 19.867538 38,050 331 437 0
2018-10-20 20:43:46 GMT 46.425064 19.871857 38,050 331 437 0
2018-10-20 20:43:42 GMT 46.415955 19.879494 38,050 330 437 0
2018-10-20 20:43:38 GMT 46.410721 19.883812 38,050 331 437 0
2018-10-20 20:43:35 GMT 46.404739 19.888803 38,050 331 437 0
2018-10-20 20:43:32 GMT 46.399841 19.892891 38,050 331 437 0
2018-10-20 20:43:28 GMT 46.393570 19.898115 38,050 331 437 0
2018-10-20 20:43:23 GMT 46.383392 19.906540 38,050 331 437 -64
2018-10-20 20:43:20 GMT 46.377110 19.911827 38,050 330 436 -64
2018-10-20 20:43:14 GMT 46.367706 19.919687 38,050 330 436 64
2018-10-20 20:43:11 GMT 46.361389 19.924978 38,050 330 436 64
2018-10-20 20:43:07 GMT 46.355804 19.929602 38,050 331 437 0
2018-10-20 20:43:04 GMT 46.350574 19.934006 38,050 331 437 0
2018-10-20 20:43:01 GMT 46.344635 19.938913 38,050 331 437 -64
2018-10-20 20:42:56 GMT 46.336899 19.945345 38,050 331 436 -128
2018-10-20 20:42:51 GMT 46.325729 19.954655 38,050 331 436 0
2018-10-20 20:42:47 GMT 46.321518 19.958139 38,050 331 437 64
2018-10-20 20:42:44 GMT 46.314171 19.964218 38,050 331 437 64
2018-10-20 20:42:38 GMT 46.304764 19.972073 38,050 331 437 0
2018-10-20 20:42:32 GMT 46.295315 19.979942 38,050 330 436 0
2018-10-20 20:42:27 GMT 46.286591 19.987280 38,050 330 436 0
2018-10-20 20:42:22 GMT 46.277813 19.994499 38,050 330 436 64
2018-10-20 20:42:19 GMT 46.271896 19.999472 38,050 330 436 64
2018-10-20 20:42:12 GMT 46.259659 20.009674 38,050 330 437 -64
2018-10-20 20:42:09 GMT 46.254070 20.014343 38,050 330 437 -64
2018-10-20 20:42:02 GMT 46.241821 20.024593 38,050 330 437 -64
2018-10-20 20:41:59 GMT 46.235870 20.029587 38,050 330 437 0
2018-10-20 20:41:52 GMT 46.222603 20.040710 38,050 330 437 0
2018-10-20 20:41:49 GMT 46.218739 20.043938 38,050 330 437 64
2018-10-20 20:41:39 GMT 46.200581 20.059181 38,050 330 437 64
2018-10-20 20:41:34 GMT 46.193619 20.065056 38,050 330 437 -64
2018-10-20 20:41:31 GMT 46.187988 20.069744 38,050 330 437 -64
2018-10-20 20:41:28 GMT 46.181728 20.074974 38,050 330 437 -64
2018-10-20 20:41:20 GMT 46.168137 20.086510 38,050 330 437 0
2018-10-20 20:41:17 GMT 46.162548 20.091179 38,050 330 437 64
2018-10-20 20:41:09 GMT 46.149673 20.102100 38,050 330 437 0
2018-10-20 20:41:06 GMT 46.143742 20.107109 38,050 330 437 0
2018-10-20 20:40:58 GMT 46.130814 20.118044 38,050 330 437 -64
2018-10-20 20:40:53 GMT 46.119644 20.127422 38,050 330 437 0
2018-10-20 20:40:48 GMT 46.113373 20.132647 38,050 330 437 0
2018-10-20 20:40:45 GMT 46.107430 20.137527 38,050 332 437 0
2018-10-20 20:40:42 GMT 46.102158 20.141825 38,050 331 437 0
2018-10-20 20:40:37 GMT 46.081921 20.157784 38,050 332 436 0
2018-10-20 20:40:31 GMT 46.081921 20.157784 38,050 332 437 0
2018-10-20 20:40:28 GMT 46.077301 20.161320 38,050 332 437 0
2018-10-20 20:40:24 GMT 46.059807 20.174675 38,050 332 437 0
2018-10-20 20:40:18 GMT 46.059807 20.174675 38,050 332 437 0
2018-10-20 20:40:15 GMT 46.051941 20.180717 38,050 332 436 64
2018-10-20 20:40:07 GMT 46.038757 20.190794 38,050 333 437 0
2018-10-20 20:40:03 GMT 46.033413 20.194862 38,050 333 437 0
2018-10-20 20:40:00 GMT 46.025547 20.200836 38,050 333 437 -64
2018-10-20 20:39:56 GMT 46.017334 20.207073 38,050 333 437 0
2018-10-20 20:39:51 GMT 46.011612 20.211428 38,050 333 437 0
2018-10-20 20:39:46 GMT 46.003433 20.217728 38,050 333 437 0
2018-10-20 20:39:42 GMT 45.996643 20.222883 38,050 333 437 0
2018-10-20 20:39:36 GMT 45.984859 20.231804 38,050 333 437 0
2018-10-20 20:39:33 GMT 45.978436 20.236748 38,050 333 437 0
2018-10-20 20:39:22 GMT 45.959908 20.250893 38,050 332 436 64
2018-10-20 20:39:14 GMT 45.946407 20.261192 38,050 332 436 0
2018-10-20 20:39:11 GMT 45.940681 20.265587 38,050 332 436 0
2018-10-20 20:39:05 GMT 45.929672 20.273996 38,050 333 437 -64
2018-10-20 20:38:59 GMT 45.919315 20.281792 38,050 332 436 0
2018-10-20 20:38:53 GMT 45.908295 20.290207 38,050 332 436 0
2018-10-20 20:38:50 GMT 45.902973 20.294289 38,050 332 436 64
2018-10-20 20:38:43 GMT 45.891567 20.303009 38,050 332 436 0
2018-10-20 20:38:39 GMT 45.883049 20.309532 38,050 332 436 -64
2018-10-20 20:38:31 GMT 45.864197 20.323952 38,050 332 434 -64
2018-10-20 20:38:23 GMT 45.854652 20.331299 38,050 332 435 0
2018-10-20 20:38:19 GMT 45.845760 20.338097 38,050 332 434 64
2018-10-20 20:38:13 GMT 45.836868 20.344894 38,050 332 435 0
2018-10-20 20:38:08 GMT 45.827328 20.352242 38,050 332 435 0
2018-10-20 20:38:03 GMT 45.818069 20.359274 38,050 332 435 -64
2018-10-20 20:37:59 GMT 45.810616 20.365013 38,050 332 436 -64
2018-10-20 20:37:56 GMT 45.806705 20.367966 38,050 332 433 0
2018-10-20 20:37:52 GMT 45.800652 20.372566 38,050 333 434 0
2018-10-20 20:37:47 GMT 45.791061 20.379845 38,050 332 435 0
2018-10-20 20:37:41 GMT 45.778290 20.389553 38,050 332 435 -64
2018-10-20 20:37:38 GMT 45.774033 20.392836 38,050 332 435 0
2018-10-20 20:37:30 GMT 45.752796 20.409096 38,050 332 434 0
2018-10-20 20:37:26 GMT 45.752796 20.409096 38,050 332 435 64
2018-10-20 20:37:21 GMT 45.744602 20.415276 38,050 332 435 64
2018-10-20 20:37:18 GMT 45.738602 20.419901 38,050 332 435 0
2018-10-20 20:37:10 GMT 45.725830 20.429613 38,050 333 434 -64
2018-10-20 20:37:07 GMT 45.714478 20.438189 38,050 333 434 -64
2018-10-20 20:37:04 GMT 45.714478 20.438189 38,050 333 434 -64
2018-10-20 20:37:00 GMT 45.707733 20.443291 38,050 333 434 0
2018-10-20 20:36:56 GMT 45.698868 20.449978 38,050 333 434 0
2018-10-20 20:36:53 GMT 45.695679 20.452423 38,050 333 434 0
2018-10-20 20:36:50 GMT 45.690697 20.456200 38,050 333 434 0
2018-10-20 20:36:45 GMT 45.680779 20.463684 38,050 333 434 0
2018-10-20 20:36:42 GMT 45.676498 20.466911 38,050 333 434 0
2018-10-20 20:36:39 GMT 45.671562 20.470688 38,050 333 434 0
2018-10-20 20:36:35 GMT 45.664440 20.476044 38,050 333 434 -64
2018-10-20 20:36:32 GMT 45.658401 20.480593 38,050 333 434 -64
2018-10-20 20:36:29 GMT 45.652039 20.485416 38,050 333 434 0
2018-10-20 20:36:25 GMT 45.645306 20.490532 38,050 333 434 0
2018-10-20 20:36:19 GMT 45.635010 20.498344 38,050 333 434 0
2018-10-20 20:36:14 GMT 45.625809 20.505312 38,050 333 434 -64
2018-10-20 20:36:11 GMT 45.620819 20.509064 38,050 333 434 0
2018-10-20 20:36:08 GMT 45.615513 20.513054 38,050 333 434 0
2018-10-20 20:36:05 GMT 45.608734 20.518173 38,050 333 434 64
2018-10-20 20:36:01 GMT 45.603409 20.522186 38,050 333 434 0
2018-10-20 20:35:55 GMT 45.589909 20.532349 38,050 333 435 -64
2018-10-20 20:35:52 GMT 45.587448 20.534250 38,050 333 435 0
2018-10-20 20:35:49 GMT 45.582088 20.538254 38,050 333 435 0
2018-10-20 20:35:43 GMT 45.572174 20.545738 38,050 333 435 0
2018-10-20 20:35:40 GMT 45.565750 20.550545 38,050 333 435 0
2018-10-20 20:35:37 GMT 45.560070 20.554802 38,050 333 435 0
2018-10-20 20:35:34 GMT 45.555786 20.558029 38,050 333 435 -64
2018-10-20 20:35:31 GMT 45.549412 20.562836 38,050 333 435 -64
2018-10-20 20:35:27 GMT 45.542286 20.568214 38,050 333 435 0
2018-10-20 20:35:21 GMT 45.532326 20.575718 38,050 333 434 0
2018-10-20 20:35:17 GMT 45.525558 20.580793 38,050 333 435 0
2018-10-20 20:35:10 GMT 45.509888 20.592600 38,050 333 434 -64
2018-10-20 20:35:07 GMT 45.506721 20.595011 38,050 333 435 -64
2018-10-20 20:35:02 GMT 45.497818 20.601719 38,050 333 435 0
2018-10-20 20:34:58 GMT 45.491779 20.606264 38,050 333 434 0
2018-10-20 20:34:55 GMT 45.486423 20.610285 38,050 333 436 0
2018-10-20 20:34:52 GMT 45.477905 20.616695 38,050 333 436 -64
2018-10-20 20:34:49 GMT 45.474335 20.619375 38,050 333 436 -64
2018-10-20 20:34:41 GMT 45.458633 20.631083 38,050 333 436 0
2018-10-20 20:34:35 GMT 45.449741 20.637751 38,050 333 436 0
2018-10-20 20:34:29 GMT 45.437592 20.646793 38,050 333 436 0
2018-10-20 20:34:24 GMT 45.430115 20.652399 38,050 333 437 0
2018-10-20 20:34:17 GMT 45.417622 20.661734 38,050 333 436 0
2018-10-20 20:34:13 GMT 45.411198 20.666489 38,050 333 436 0
2018-10-20 20:34:08 GMT 45.402630 20.672853 38,050 333 436 0
2018-10-20 20:34:05 GMT 45.397228 20.676872 38,050 333 436 0
2018-10-20 20:34:02 GMT 45.391922 20.680893 38,050 333 436 0
2018-10-20 20:33:57 GMT 45.381916 20.688328 38,050 333 436 0
2018-10-20 20:33:50 GMT 45.369762 20.697371 38,050 333 436 0
2018-10-20 20:33:47 GMT 45.363693 20.701839 38,050 333 437 0
2018-10-20 20:33:42 GMT 45.354401 20.708759 38,050 333 436 0
2018-10-20 20:33:37 GMT 45.347607 20.713852 38,050 333 436 0
2018-10-20 20:33:34 GMT 45.341183 20.718607 38,050 333 436 0
2018-10-20 20:33:31 GMT 45.336548 20.722046 38,050 333 436 0
2018-10-20 20:33:28 GMT 45.330521 20.726580 38,050 333 436 0
2018-10-20 20:33:25 GMT 45.324417 20.731070 38,050 333 436 0
2018-10-20 20:33:18 GMT 45.313389 20.739307 38,050 333 436 0
2018-10-20 20:33:15 GMT 45.307663 20.743593 38,050 333 436 0
2018-10-20 20:33:12 GMT 45.303040 20.747026 38,050 333 436 0
2018-10-20 20:33:07 GMT 45.293060 20.754482 38,050 333 436 0
2018-10-20 20:33:04 GMT 45.286995 20.759003 38,050 333 436 -64
2018-10-20 20:33:01 GMT 45.281639 20.762955 38,050 333 435 -64
2018-10-20 20:32:57 GMT 45.274567 20.768280 38,050 333 435 -64
2018-10-20 20:32:54 GMT 45.269577 20.771942 38,050 333 435 0
2018-10-20 20:32:46 GMT 45.256409 20.781778 38,050 333 434 0
2018-10-20 20:32:42 GMT 45.246780 20.788879 38,050 333 434 0
2018-10-20 20:32:35 GMT 45.236847 20.796333 38,050 333 434 0
2018-10-20 20:32:26 GMT 45.218399 20.810066 38,050 333 433 0
2018-10-20 20:32:22 GMT 45.212372 20.814535 38,050 333 433 64
2018-10-20 20:32:14 GMT 45.199570 20.824049 38,050 333 433 0
2018-10-20 20:32:10 GMT 45.192856 20.829098 38,050 333 432 0
2018-10-20 20:32:05 GMT 45.179398 20.839169 38,050 333 433 0
2018-10-20 20:31:59 GMT 45.173080 20.843943 38,050 333 432 0
2018-10-20 20:31:53 GMT 45.161396 20.852720 38,050 333 432 0
2018-10-20 20:31:46 GMT 45.150467 20.860945 38,050 333 432 0
2018-10-20 20:31:40 GMT 45.139160 20.869381 38,050 333 432 0
2018-10-20 20:31:32 GMT 45.125366 20.879583 38,050 333 432 0
2018-10-20 20:31:29 GMT 45.119686 20.883738 38,050 333 432 0
2018-10-20 20:31:22 GMT 45.106613 20.893379 38,050 333 431 0
2018-10-20 20:31:11 GMT 45.086792 20.907898 38,050 333 430 0
2018-10-20 20:31:00 GMT 45.068806 20.921185 38,050 333 430 0
2018-10-20 20:30:55 GMT 45.060333 20.927347 38,050 333 429 0
2018-10-20 20:30:47 GMT 45.044449 20.939091 38,050 333 429 0
2018-10-20 20:30:39 GMT 45.028976 20.950470 38,050 333 429 0
2018-10-20 20:30:23 GMT 45.003616 20.969173 38,050 333 429 -64
2018-10-20 20:30:19 GMT 44.995529 20.975111 38,050 333 429 0
2018-10-20 20:30:16 GMT 44.988503 20.980268 38,050 333 429 0
2018-10-20 20:30:09 GMT 44.978680 20.987503 38,050 333 429 0
2018-10-20 20:30:04 GMT 44.969509 20.994270 38,050 333 429 0
2018-10-20 20:30:00 GMT 44.962143 20.999647 38,050 333 429 -64
2018-10-20 20:29:55 GMT 44.953674 21.005859 38,050 333 429 0
2018-10-20 20:29:51 GMT 44.945580 21.011753 38,050 333 429 0
2018-10-20 20:29:48 GMT 44.940308 21.015602 38,050 333 428 0
2018-10-20 20:29:43 GMT 44.933304 21.020769 38,050 333 428 0
2018-10-20 20:29:35 GMT 44.918907 21.031317 38,050 333 428 0
2018-10-20 20:29:25 GMT 44.900253 21.044966 38,050 333 428 0
2018-10-20 20:29:17 GMT 44.886551 21.054962 38,050 333 428 0
2018-10-20 20:29:14 GMT 44.881989 21.058306 38,050 333 428 64
2018-10-20 20:29:05 GMT 44.866562 21.069553 38,050 333 428 0
2018-10-20 20:29:01 GMT 44.859180 21.074926 38,050 333 428 64
2018-10-20 20:28:55 GMT 44.849358 21.082094 38,050 333 428 0
2018-10-20 20:28:51 GMT 44.841980 21.087406 38,050 333 428 64
2018-10-20 20:28:46 GMT 44.830364 21.095894 38,050 333 428 0
2018-10-20 20:28:42 GMT 44.824776 21.099979 38,050 333 428 -64
2018-10-20 20:28:30 GMT 44.805450 21.114088 38,050 333 428 0
2018-10-20 20:28:27 GMT 44.798447 21.119188 38,050 333 428 0
2018-10-20 20:28:24 GMT 44.794563 21.122021 38,050 333 428 0
2018-10-20 20:28:20 GMT 44.787918 21.126905 38,050 333 428 0
2018-10-20 20:28:12 GMT 44.773865 21.137173 38,050 333 428 0
2018-10-20 20:28:09 GMT 44.766495 21.142519 38,050 333 428 0
2018-10-20 20:28:03 GMT 44.758068 21.148682 38,050 333 428 0
2018-10-20 20:27:59 GMT 44.748596 21.155613 38,050 333 428 0
2018-10-20 20:27:51 GMT 44.736649 21.164310 38,050 333 428 0
2018-10-20 20:27:48 GMT 44.731750 21.167908 38,050 333 427 0
2018-10-20 20:27:43 GMT 44.721909 21.175100 38,050 333 428 0
2018-10-20 20:27:38 GMT 44.712448 21.182043 38,050 333 428 0
2018-10-20 20:27:32 GMT 44.703690 21.188442 38,050 333 428 0
2018-10-20 20:27:28 GMT 44.695267 21.194590 38,050 333 428 0
2018-10-20 20:27:22 GMT 44.685120 21.202005 38,050 333 428 0
2018-10-20 20:27:17 GMT 44.675949 21.208637 38,050 333 428 -64
2018-10-20 20:27:10 GMT 44.664413 21.217085 38,050 333 428 0
2018-10-20 20:27:01 GMT 44.648941 21.228268 38,050 333 428 0
2018-10-20 20:26:53 GMT 44.634933 21.238535 38,050 333 427 64
2018-10-20 20:26:49 GMT 44.627930 21.243635 38,050 333 428 -64
2018-10-20 20:26:40 GMT 44.611084 21.255930 38,050 333 427 0
2018-10-20 20:26:33 GMT 44.600258 21.263905 38,050 333 428 -64
2018-10-20 20:26:30 GMT 44.593597 21.268747 38,050 333 427 0
2018-10-20 20:26:23 GMT 44.582752 21.276699 38,050 333 427 0
2018-10-20 20:26:18 GMT 44.572277 21.284403 38,050 333 427 0
2018-10-20 20:26:14 GMT 44.565628 21.289280 38,050 333 427 0
2018-10-20 20:26:07 GMT 44.553379 21.298203 38,050 333 426 0
2018-10-20 20:26:03 GMT 44.546349 21.303226 38,050 333 427 0
2018-10-20 20:25:57 GMT 44.536526 21.310328 38,050 333 427 0
2018-10-20 20:25:52 GMT 44.527039 21.317139 38,050 333 426 0
2018-10-20 20:25:46 GMT 44.517929 21.323744 38,050 333 426 0
2018-10-20 20:25:42 GMT 44.509552 21.329824 38,050 333 426 -64
2018-10-20 20:25:37 GMT 44.502171 21.335114 38,050 333 426 0
2018-10-20 20:25:25 GMT 44.480431 21.350790 38,050 333 428 0
2018-10-20 20:25:20 GMT 44.472004 21.356886 38,050 333 427 0
2018-10-20 20:25:11 GMT 44.455803 21.368542 38,050 333 430 64
2018-10-20 20:25:06 GMT 44.446632 21.375107 38,050 333 430 64
2018-10-20 20:25:00 GMT 44.436356 21.382467 38,050 333 431 0
2018-10-20 20:24:54 GMT 44.425690 21.390055 38,050 334 432 0
2018-10-20 20:24:49 GMT 44.416050 21.396812 38,050 334 432 0
2018-10-20 20:24:45 GMT 44.410034 21.401106 38,050 334 432 0
2018-10-20 20:24:39 GMT 44.398266 21.409473 38,050 334 432 0
2018-10-20 20:24:35 GMT 44.391144 21.414497 38,050 334 432 0
2018-10-20 20:24:32 GMT 44.386860 21.417513 38,050 334 432 -64
2018-10-20 20:24:29 GMT 44.379738 21.422604 38,050 334 432 -64
2018-10-20 20:24:24 GMT 44.372955 21.427395 38,050 334 432 -64
2018-10-20 20:24:21 GMT 44.367279 21.431450 38,050 334 432 0
2018-10-20 20:24:17 GMT 44.349472 21.444071 38,050 333 431 0
2018-10-20 20:24:11 GMT 44.349472 21.444071 38,050 333 431 -64
2018-10-20 20:24:07 GMT 44.341690 21.449694 38,050 333 431 -64
2018-10-20 20:24:03 GMT 44.335651 21.453955 38,050 333 431 0
2018-10-20 20:23:57 GMT 44.324615 21.461857 38,050 333 431 0
2018-10-20 20:23:50 GMT 44.312191 21.470634 38,050 333 431 0
2018-10-20 20:23:47 GMT 44.306168 21.474936 38,050 333 431 0
2018-10-20 20:23:42 GMT 44.297295 21.481218 38,050 333 431 0
2018-10-20 20:23:36 GMT 44.287720 21.488014 38,050 333 431 0
2018-10-20 20:23:32 GMT 44.280254 21.493343 38,050 333 430 0
2018-10-20 20:23:25 GMT 44.268246 21.501986 38,050 333 430 0
2018-10-20 20:23:22 GMT 44.262955 21.505737 38,050 333 430 64
2018-10-20 20:23:15 GMT 44.249161 21.515652 38,050 333 430 -64
2018-10-20 20:23:12 GMT 44.244553 21.518948 38,050 333 430 0
2018-10-20 20:23:03 GMT 44.228722 21.530390 38,050 333 429 0
2018-10-20 20:23:00 GMT 44.224487 21.533470 38,050 333 429 0
2018-10-20 20:22:54 GMT 44.212875 21.541901 38,050 333 428 0
2018-10-20 20:22:49 GMT 44.204098 21.548208 38,050 333 428 0
2018-10-20 20:22:38 GMT 44.177032 21.567759 38,050 333 428 64
2018-10-20 20:22:27 GMT 44.163364 21.577606 38,050 333 427 0
2018-10-20 20:22:22 GMT 44.156334 21.582642 38,050 333 427 0
2018-10-20 20:22:18 GMT 44.150345 21.586922 38,050 333 427 0
2018-10-20 20:22:08 GMT 44.132450 21.599644 38,050 333 427 0
2018-10-20 20:21:57 GMT 44.112110 21.614098 38,050 333 425 0
2018-10-20 20:21:48 GMT 44.090744 21.629271 38,050 333 425 0
2018-10-20 20:21:39 GMT 44.080948 21.636232 38,050 333 424 0
2018-10-20 20:21:35 GMT 44.073257 21.641726 38,050 333 424 0
2018-10-20 20:21:27 GMT 44.060295 21.650913 38,050 333 424 0
2018-10-20 20:21:18 GMT 44.044601 21.662037 38,050 333 424 0
2018-10-20 20:21:15 GMT 44.038330 21.666508 38,050 333 424 -64
2018-10-20 20:21:08 GMT 44.027477 21.674194 38,050 333 423 0
2018-10-20 20:21:03 GMT 44.017700 21.681126 38,050 333 424 0
2018-10-20 20:20:57 GMT 44.007973 21.687992 38,050 333 423 0
2018-10-20 20:20:54 GMT 44.002716 21.691738 38,050 333 423 0
2018-10-20 20:20:45 GMT 43.985672 21.703817 38,050 333 423 0
2018-10-20 20:20:36 GMT 43.970673 21.714478 38,050 333 422 -64
2018-10-20 20:20:33 GMT 43.966866 21.717224 38,050 333 422 -64
2018-10-20 20:20:25 GMT 43.951904 21.727827 38,050 333 422 0
2018-10-20 20:20:16 GMT 43.936569 21.738623 38,050 333 422 0
2018-10-20 20:20:04 GMT 43.915009 21.753887 38,050 333 422 0
2018-10-20 20:19:54 GMT 43.898346 21.765640 38,050 334 421 0
2018-10-20 20:19:43 GMT 43.877159 21.780460 38,050 334 421 0
2018-10-20 20:19:40 GMT 43.872620 21.783588 38,050 334 421 0
2018-10-20 20:19:33 GMT 43.861843 21.791121 38,050 334 421 0
2018-10-20 20:19:28 GMT 43.851418 21.798445 38,050 334 421 0
2018-10-20 20:19:23 GMT 43.843460 21.804029 38,050 334 420 0
2018-10-20 20:19:14 GMT 43.828171 21.814695 38,050 334 420 0
2018-10-20 20:19:01 GMT 43.806015 21.830345 38,050 333 421 -64
2018-10-20 20:18:51 GMT 43.788712 21.842545 38,050 333 421 64
2018-10-20 20:18:41 GMT 43.770676 21.855255 38,050 333 421 0
2018-10-20 20:18:36 GMT 43.761703 21.861580 38,050 333 420 -64
2018-10-20 20:18:30 GMT 43.751999 21.868479 38,050 333 420 0
2018-10-20 20:18:27 GMT 43.746460 21.872374 38,050 333 420 0
2018-10-20 20:18:22 GMT 43.738525 21.878031 38,050 333 420 0
2018-10-20 20:18:19 GMT 43.734383 21.880974 38,050 333 420 0
2018-10-20 20:18:16 GMT 43.726410 21.886618 38,050 333 420 0
2018-10-20 20:18:12 GMT 43.721603 21.890066 38,050 333 420 0
2018-10-20 20:18:09 GMT 43.715717 21.894247 38,050 333 420 0
2018-10-20 20:17:59 GMT 43.697746 21.907000 38,050 333 420 0
2018-10-20 20:17:54 GMT 43.690159 21.912361 38,050 333 420 0
2018-10-20 20:17:48 GMT 43.679779 21.919685 38,050 333 419 0
2018-10-20 20:17:41 GMT 43.666992 21.928646 38,050 334 420 -64
2018-10-20 20:17:37 GMT 43.659016 21.934204 38,050 334 420 0
2018-10-20 20:17:27 GMT 43.643093 21.945255 38,050 334 419 0
2018-10-20 20:17:24 GMT 43.638950 21.948133 38,050 334 419 0
2018-10-20 20:17:17 GMT 43.624695 21.958029 38,050 334 419 0
2018-10-20 20:17:13 GMT 43.618141 21.962585 38,050 334 419 0
2018-10-20 20:17:08 GMT 43.610138 21.968121 38,050 334 419 0
2018-10-20 20:17:04 GMT 43.602177 21.973637 38,050 334 419 0
2018-10-20 20:16:59 GMT 43.594894 21.978661 38,050 334 419 0
2018-10-20 20:16:56 GMT 43.583817 21.986389 38,050 334 419 0
2018-10-20 20:16:48 GMT 43.576527 21.991425 38,050 334 419 0
2018-10-20 20:16:43 GMT 43.566193 21.998684 38,050 334 419 0
2018-10-20 20:16:38 GMT 43.558556 22.003981 38,050 334 419 -64
2018-10-20 20:16:34 GMT 43.552002 22.008490 38,050 334 419 -64
2018-10-20 20:16:31 GMT 43.546825 22.012089 38,050 334 419 -64
2018-10-20 20:16:28 GMT 43.540924 22.016153 38,050 334 418 0
2018-10-20 20:16:25 GMT 43.536072 22.019541 38,050 334 418 0
2018-10-20 20:16:22 GMT 43.529160 22.024330 38,050 334 418 0
2018-10-20 20:16:18 GMT 43.524353 22.027653 38,050 334 418 0
2018-10-20 20:16:13 GMT 43.514984 22.034126 38,050 334 418 0
2018-10-20 20:16:07 GMT 43.505302 22.040798 38,050 334 418 -64
2018-10-20 20:16:01 GMT 43.493225 22.049112 38,050 334 418 0
2018-10-20 20:15:57 GMT 43.487686 22.052881 38,050 334 418 0
2018-10-20 20:15:51 GMT 43.477650 22.059828 38,050 334 418 0
2018-10-20 20:15:47 GMT 43.470760 22.064602 38,050 334 418 0
2018-10-20 20:15:40 GMT 43.457630 22.073690 38,050 334 418 0
2018-10-20 20:15:36 GMT 43.452484 22.077282 38,050 334 418 0
2018-10-20 20:15:32 GMT 43.445572 22.082071 38,050 334 418 64
2018-10-20 20:15:29 GMT 43.439392 22.086351 38,050 334 418 64
2018-10-20 20:15:26 GMT 43.433517 22.090431 38,050 334 418 64
2018-10-20 20:15:19 GMT 43.421787 22.098541 38,050 334 417 -64
2018-10-20 20:15:16 GMT 43.416641 22.102129 38,050 334 417 -64
2018-10-20 20:15:09 GMT 43.403549 22.111198 38,050 334 417 0
2018-10-20 20:15:06 GMT 43.399384 22.114073 38,050 334 417 0
2018-10-20 20:14:55 GMT 43.381145 22.126661 38,050 334 416 0
2018-10-20 20:14:48 GMT 43.367752 22.135983 38,050 334 416 64
2018-10-20 20:14:45 GMT 43.362900 22.139303 38,050 334 416 0
2018-10-20 20:14:38 GMT 43.350189 22.148176 38,050 334 416 -64
2018-10-20 20:14:34 GMT 43.345047 22.151758 38,050 334 416 -64
2018-10-20 20:14:27 GMT 43.331615 22.161058 38,050 334 416 0
2018-10-20 20:14:24 GMT 43.327148 22.164150 38,050 334 416 0
2018-10-20 20:14:17 GMT 43.314438 22.172960 38,050 334 416 64
2018-10-20 20:14:13 GMT 43.308895 22.176752 38,050 334 416 64
2018-10-20 20:14:06 GMT 43.296890 22.185101 38,050 334 416 -64
2018-10-20 20:14:03 GMT 43.291351 22.188869 38,050 334 416 -64
2018-10-20 20:13:56 GMT 43.278992 22.197430 38,050 334 416 0
2018-10-20 20:13:53 GMT 43.273842 22.200951 38,050 334 416 64
2018-10-20 20:13:46 GMT 43.260761 22.209909 38,050 334 415 0
2018-10-20 20:13:42 GMT 43.255222 22.213701 38,050 334 415 0
2018-10-20 20:13:35 GMT 43.242508 22.222404 38,050 334 416 0
2018-10-20 20:13:32 GMT 43.237701 22.225725 38,050 334 416 0
2018-10-20 20:13:25 GMT 43.224655 22.234732 38,050 334 415 -64
2018-10-20 20:13:21 GMT 43.219517 22.238226 38,050 334 415 -64
2018-10-20 20:13:15 GMT 43.209549 22.245144 38,050 334 415 0
2018-10-20 20:13:11 GMT 43.202042 22.250317 38,050 334 415 0
2018-10-20 20:13:05 GMT 43.191742 22.257406 38,050 334 415 0
2018-10-20 20:13:01 GMT 43.184555 22.262421 38,050 334 415 0
2018-10-20 20:12:54 GMT 43.171188 22.271650 38,050 334 415 0
2018-10-20 20:12:50 GMT 43.165329 22.275696 38,050 334 415 0
2018-10-20 20:12:43 GMT 43.153690 22.283806 38,050 334 415 0
2018-10-20 20:12:40 GMT 43.148895 22.287073 38,050 334 415 0
2018-10-20 20:12:34 GMT 43.138321 22.294453 38,050 334 415 0
2018-10-20 20:12:30 GMT 43.131454 22.299179 38,050 334 415 0
2018-10-20 20:12:24 GMT 43.120129 22.306955 38,050 334 415 0
2018-10-20 20:12:19 GMT 43.112587 22.312056 38,050 334 414 0
2018-10-20 20:12:12 GMT 43.100250 22.320427 38,050 334 414 0
2018-10-20 20:12:09 GMT 43.095455 22.323696 38,050 334 414 0
2018-10-20 20:12:02 GMT 43.084122 22.331373 38,050 334 414 0
2018-10-20 20:11:59 GMT 43.078278 22.335337 38,050 334 414 0
2018-10-20 20:11:50 GMT 43.056702 22.350023 38,050 334 413 -64
2018-10-20 20:11:41 GMT 43.048508 22.355644 38,050 334 414 0
2018-10-20 20:11:38 GMT 43.042328 22.359797 38,050 334 414 0
2018-10-20 20:11:31 GMT 43.030655 22.367718 38,050 334 413 0
2018-10-20 20:11:27 GMT 43.023834 22.372316 38,050 334 412 0
2018-10-20 20:11:20 GMT 43.007053 22.383596 38,050 334 412 0
2018-10-20 20:11:17 GMT 43.007053 22.383596 38,050 334 412 0
2018-10-20 20:11:11 GMT 42.995461 22.391445 38,050 334 412 64
2018-10-20 20:11:07 GMT 42.988953 22.395758 38,050 334 412 0
2018-10-20 20:10:59 GMT 42.975628 22.404785 38,050 334 412 0
2018-10-20 20:10:56 GMT 42.970505 22.408213 38,050 334 412 0
2018-10-20 20:10:50 GMT 42.959896 22.415314 38,050 334 411 0
2018-10-20 20:10:47 GMT 42.955147 22.418583 38,050 334 411 0
2018-10-20 20:10:38 GMT 42.941116 22.428015 38,050 334 412 -64
2018-10-20 20:10:35 GMT 42.935364 22.431925 38,050 334 411 0
2018-10-20 20:10:26 GMT 42.919327 22.442833 38,050 334 411 0
2018-10-20 20:10:18 GMT 42.905777 22.452093 38,050 334 411 0
2018-10-20 20:10:14 GMT 42.900330 22.455864 38,050 334 411 0
2018-10-20 20:10:07 GMT 42.886093 22.465700 38,050 334 411 0
2018-10-20 20:10:04 GMT 42.883083 22.467827 38,050 334 411 0
2018-10-20 20:09:56 GMT 42.868141 22.478092 38,050 334 411 64
2018-10-20 20:09:53 GMT 42.864742 22.480383 38,050 334 411 0
2018-10-20 20:09:46 GMT 42.852219 22.489079 38,050 334 411 0
2018-10-20 20:09:43 GMT 42.846817 22.492783 38,050 334 411 0
2018-10-20 20:09:34 GMT 42.832249 22.502811 38,050 334 410 0
2018-10-20 20:09:24 GMT 42.814957 22.514690 38,050 334 410 0
2018-10-20 20:09:20 GMT 42.807808 22.519545 38,050 334 410 0
2018-10-20 20:09:14 GMT 42.797661 22.526508 38,050 334 410 0
2018-10-20 20:09:03 GMT 42.779663 22.538828 38,050 334 410 0
2018-10-20 20:08:58 GMT 42.771515 22.544445 38,050 334 410 0
2018-10-20 20:08:54 GMT 42.762375 22.550716 38,050 334 410 64
2018-10-20 20:08:51 GMT 42.758324 22.553463 38,050 334 410 0
2018-10-20 20:08:43 GMT 42.745056 22.562548 38,050 334 410 0
2018-10-20 20:08:40 GMT 42.739983 22.565983 38,050 334 410 0
2018-10-20 20:08:32 GMT 42.710793 22.585974 38,050 334 410 0
2018-10-20 20:08:24 GMT 42.710793 22.585974 38,050 334 410 0
2018-10-20 20:08:21 GMT 42.706375 22.588951 38,050 334 410 0
2018-10-20 20:08:16 GMT 42.699249 22.593767 38,050 334 411 -64
2018-10-20 20:08:13 GMT 42.693150 22.597919 38,050 334 411 0
2018-10-20 20:08:10 GMT 42.689751 22.600283 38,050 334 411 0
2018-10-20 20:08:06 GMT 42.682617 22.605120 38,050 334 411 0
2018-10-20 20:08:02 GMT 42.669022 22.614294 38,050 334 410 -64
2018-10-20 20:07:58 GMT 42.669022 22.614294 38,050 334 410 0
2018-10-20 20:07:52 GMT 42.658127 22.621599 38,050 334 410 64
2018-10-20 20:07:47 GMT 42.650665 22.626593 38,050 334 410 0
2018-10-20 20:07:41 GMT 42.632633 22.638670 38,050 334 409 0
2018-10-20 20:07:37 GMT 42.632633 22.638670 38,050 334 409 0
2018-10-20 20:07:30 GMT 42.621460 22.646193 38,050 334 410 -64
2018-10-20 20:07:26 GMT 42.615036 22.650551 38,050 334 409 -64
2018-10-20 20:07:20 GMT 42.604191 22.657833 38,050 334 409 64
2018-10-20 20:07:17 GMT 42.600140 22.660580 38,050 334 408 64
2018-10-20 20:07:13 GMT 42.591019 22.666792 38,050 334 408 64
2018-10-20 20:07:09 GMT 42.579189 22.674759 38,050 334 407 64
2018-10-20 20:07:05 GMT 42.579189 22.674759 38,050 334 409 0
2018-10-20 20:07:02 GMT 42.572113 22.679527 38,050 334 409 0
2018-10-20 20:06:58 GMT 42.568039 22.682274 38,050 334 409 0
2018-10-20 20:06:54 GMT 42.560944 22.687086 38,050 334 409 0
2018-10-20 20:06:50 GMT 42.552521 22.692823 38,050 334 408 0
2018-10-20 20:06:45 GMT 42.545746 22.697378 38,050 334 408 0
2018-10-20 20:06:42 GMT 42.538643 22.702162 38,050 334 408 0
2018-10-20 20:06:39 GMT 42.534256 22.705181 38,050 334 408 0
2018-10-20 20:06:34 GMT 42.527191 22.710018 38,050 334 408 64
2018-10-20 20:06:29 GMT 42.517410 22.716667 38,050 334 409 0
2018-10-20 20:06:23 GMT 42.508991 22.722408 38,050 334 409 0
2018-10-20 20:06:20 GMT 42.503952 22.725906 38,050 334 409 0
2018-10-20 20:06:17 GMT 42.499191 22.729090 38,050 334 409 0
2018-10-20 20:06:13 GMT 42.491776 22.734209 38,050 334 409 0
2018-10-20 20:06:10 GMT 42.481991 22.740870 38,050 334 409 0
2018-10-20 20:06:07 GMT 42.471497 22.748005 38,050 334 409 0
2018-10-20 20:06:01 GMT 42.464394 22.752813 38,050 334 409 0
2018-10-20 20:05:57 GMT 42.464394 22.752813 38,050 334 410 0
2018-10-20 20:05:52 GMT 42.455246 22.758928 38,050 334 409 0
2018-10-20 20:05:49 GMT 42.450150 22.762331 38,050 334 410 -64
2018-10-20 20:05:46 GMT 42.445038 22.765732 38,050 334 410 -64
2018-10-20 20:05:41 GMT 42.436203 22.771601 38,050 334 410 0
2018-10-20 20:05:36 GMT 42.427368 22.777531 38,050 334 410 64
2018-10-20 20:05:31 GMT 42.419861 22.782461 38,050 334 410 -64
2018-10-20 20:05:28 GMT 42.414459 22.786144 38,050 334 410 0
2018-10-20 20:05:24 GMT 42.407639 22.790701 38,050 334 410 -64
2018-10-20 20:05:18 GMT 42.396103 22.798441 38,050 334 410 0
2018-10-20 20:05:15 GMT 42.392715 22.800751 38,050 334 410 0
2018-10-20 20:05:10 GMT 42.379120 22.809927 38,050 334 411 0
2018-10-20 20:05:07 GMT 42.379120 22.809927 38,050 334 411 64
2018-10-20 20:05:04 GMT 42.374035 22.813366 38,050 334 411 64
2018-10-20 20:04:58 GMT 42.364491 22.819754 38,050 334 411 -64
2018-10-20 20:04:55 GMT 42.358749 22.823660 38,050 334 411 0
2018-10-20 20:04:52 GMT 42.353645 22.827099 38,050 334 411 64
2018-10-20 20:04:47 GMT 42.344799 22.833103 38,050 334 411 64
2018-10-20 20:04:44 GMT 42.338333 22.837456 38,050 334 411 0
2018-10-20 20:04:40 GMT 42.333572 22.840639 38,050 334 411 0
2018-10-20 20:04:36 GMT 42.326065 22.845695 38,050 334 411 0
2018-10-20 20:04:33 GMT 42.315517 22.852840 38,050 334 412 0
2018-10-20 20:04:26 GMT 42.309036 22.857182 38,050 334 412 0
2018-10-20 20:04:22 GMT 42.301880 22.862038 38,050 334 412 -64
2018-10-20 20:04:19 GMT 42.298141 22.864546 38,050 334 412 -64
2018-10-20 20:04:15 GMT 42.291637 22.868937 38,050 334 412 0
2018-10-20 20:04:12 GMT 42.285492 22.873024 38,050 334 412 0
2018-10-20 20:04:09 GMT 42.280743 22.876219 38,050 334 412 0
2018-10-20 20:04:05 GMT 42.273560 22.881025 38,050 334 412 0
2018-10-20 20:04:01 GMT 42.266052 22.886082 38,050 334 413 0
2018-10-20 20:03:54 GMT 42.249664 22.897068 38,050 334 412 0
2018-10-20 20:03:44 GMT 42.238724 22.904434 38,050 334 412 0
2018-10-20 20:03:41 GMT 42.231903 22.908991 38,050 334 412 -64
2018-10-20 20:03:34 GMT 42.220963 22.916357 38,050 334 412 0
2018-10-20 20:03:31 GMT 42.214142 22.920914 38,050 334 412 64
2018-10-20 20:03:27 GMT 42.208694 22.924597 38,050 334 412 0
2018-10-20 20:03:23 GMT 42.200813 22.929808 38,050 334 412 64
2018-10-20 20:03:19 GMT 42.196068 22.933002 38,050 334 412 0
2018-10-20 20:03:16 GMT 42.189560 22.937330 38,050 334 412 64
2018-10-20 20:03:13 GMT 42.178932 22.944370 38,050 334 412 0
2018-10-20 20:03:09 GMT 42.178932 22.944370 38,050 334 413 0
2018-10-20 20:03:02 GMT 42.165249 22.953569 38,050 334 413 0
2018-10-20 20:02:59 GMT 42.160500 22.956762 38,050 334 413 0
2018-10-20 20:02:54 GMT 42.152260 22.962193 38,050 334 413 0
2018-10-20 20:02:51 GMT 42.143005 22.968355 38,050 334 413 0
2018-10-20 20:02:42 GMT 42.132381 22.975414 38,050 334 413 0
2018-10-20 20:02:39 GMT 42.124512 22.980652 38,050 334 413 0
2018-10-20 20:02:32 GMT 42.114212 22.987518 38,050 334 413 0
2018-10-20 20:02:27 GMT 42.107010 22.992277 38,050 334 413 0
2018-10-20 20:02:22 GMT 42.096722 22.999048 38,050 334 413 0
2018-10-20 20:02:17 GMT 42.088852 23.004311 38,050 334 414 0
2018-10-20 20:02:11 GMT 42.079193 23.010677 38,050 334 414 0
2018-10-20 20:02:06 GMT 42.070953 23.016108 38,050 334 414 64
2018-10-20 20:02:00 GMT 42.059280 23.023848 38,050 334 415 0
2018-10-20 20:01:55 GMT 42.050682 23.029579 38,050 334 415 0
2018-10-20 20:01:50 GMT 42.043095 23.034624 38,050 334 415 0
2018-10-20 20:01:45 GMT 42.034470 23.040327 38,050 334 415 0
2018-10-20 20:01:40 GMT 42.025543 23.046259 38,050 334 416 0
2018-10-20 20:01:34 GMT 42.014511 23.053560 38,050 334 416 0
2018-10-20 20:01:29 GMT 42.006912 23.058617 38,050 334 416 0
2018-10-20 20:01:24 GMT 41.998314 23.064327 38,050 334 416 0
2018-10-20 20:01:19 GMT 41.989014 23.070539 38,050 334 416 0
2018-10-20 20:01:14 GMT 41.980042 23.076469 38,050 334 416 0
2018-10-20 20:01:09 GMT 41.971756 23.081963 38,050 334 417 -64
2018-10-20 20:01:03 GMT 41.962097 23.088392 38,050 334 417 -64
2018-10-20 20:00:59 GMT 41.954498 23.093449 38,050 334 417 0
2018-10-20 20:00:53 GMT 41.944450 23.100161 38,050 334 417 0
2018-10-20 20:00:48 GMT 41.935467 23.106100 38,050 334 417 0
2018-10-20 20:00:42 GMT 41.925781 23.112553 38,050 334 417 0
2018-10-20 20:00:37 GMT 41.916458 23.118731 38,050 334 418 0
2018-10-20 20:00:32 GMT 41.907768 23.124496 38,050 334 418 0
2018-10-20 20:00:27 GMT 41.899796 23.129780 38,050 334 418 0
2018-10-20 20:00:22 GMT 41.889751 23.136503 38,050 334 418 0
2018-10-20 20:00:16 GMT 41.880768 23.142445 38,050 334 418 0
2018-10-20 20:00:11 GMT 41.871735 23.148449 38,050 334 418 0
2018-10-20 20:00:07 GMT 41.864799 23.153048 38,050 334 418 0
2018-10-20 20:00:03 GMT 41.858231 23.157433 38,050 334 418 -64
2018-10-20 20:00:00 GMT 41.853024 23.160839 38,050 334 419 -64
2018-10-20 19:59:57 GMT 41.847481 23.164545 38,050 334 419 -64
2018-10-20 19:59:54 GMT 41.842594 23.167740 38,050 334 418 -64
2018-10-20 19:59:51 GMT 41.835297 23.172476 38,050 334 418 0
2018-10-20 19:59:46 GMT 41.829025 23.176596 38,050 334 418 0
2018-10-20 19:59:42 GMT 41.821381 23.181589 38,050 334 418 -64
2018-10-20 19:59:39 GMT 41.815842 23.185209 38,050 334 418 0
2018-10-20 19:59:36 GMT 41.811310 23.188177 38,050 334 418 0
2018-10-20 19:59:33 GMT 41.806091 23.191578 38,050 334 418 0
2018-10-20 19:59:30 GMT 41.799488 23.195908 38,050 334 418 -64
2018-10-20 19:59:26 GMT 41.792862 23.200191 38,050 334 418 -64
2018-10-20 19:59:18 GMT 41.780365 23.208431 38,050 334 419 0
2018-10-20 19:59:15 GMT 41.775139 23.211811 38,050 334 419 0
2018-10-20 19:59:12 GMT 41.768555 23.216171 38,050 334 419 0
2018-10-20 19:59:08 GMT 41.762970 23.219854 38,050 334 419 64
2018-10-20 19:59:05 GMT 41.757431 23.223475 38,050 334 419 64
2018-10-20 19:58:57 GMT 41.743206 23.232889 38,050 334 419 64
2018-10-20 19:58:46 GMT 41.724445 23.245218 38,050 334 419 0
2018-10-20 19:58:38 GMT 41.708431 23.255756 38,050 334 419 0
2018-10-20 19:58:27 GMT 41.690323 23.267637 38,050 334 419 0
2018-10-20 19:58:17 GMT 41.672260 23.279581 38,050 334 419 0
2018-10-20 19:58:12 GMT 41.664230 23.284836 38,050 334 419 -64
2018-10-20 19:58:05 GMT 41.652374 23.292576 38,050 334 420 0
2018-10-20 19:57:54 GMT 41.633606 23.304998 38,050 334 420 -64
2018-10-20 19:57:43 GMT 41.615139 23.317141 38,050 334 420 0
2018-10-20 19:57:33 GMT 41.597351 23.328781 38,050 334 420 0
2018-10-20 19:57:23 GMT 41.579224 23.340704 38,050 334 419 64
2018-10-20 19:57:12 GMT 41.560768 23.352781 38,050 334 419 0
2018-10-20 19:57:02 GMT 41.541916 23.365108 38,050 334 420 0
2018-10-20 19:56:51 GMT 41.523758 23.376926 38,050 335 420 64
2018-10-20 19:56:40 GMT 41.504562 23.389393 38,050 334 420 -64
2018-10-20 19:56:30 GMT 41.486343 23.401192 38,050 334 420 -64
2018-10-20 19:56:20 GMT 41.468857 23.412552 38,050 334 420 0
2018-10-20 19:56:08 GMT 41.448948 23.425470 38,050 334 420 0
2018-10-20 19:55:59 GMT 41.431824 23.436647 38,050 334 420 0
2018-10-20 19:55:48 GMT 41.413338 23.448656 38,050 334 420 0
2018-10-20 19:55:37 GMT 41.395020 23.461180 38,050 332 420 0
2018-10-20 19:55:27 GMT 41.377213 23.473877 38,050 332 419 0
2018-10-20 19:55:19 GMT 41.362839 23.484070 38,050 333 420 0
2018-10-20 19:55:16 GMT 41.358032 23.487427 38,050 333 420 0
2018-10-20 19:55:08 GMT 41.344345 23.497070 38,050 332 419 -64
2018-10-20 19:55:05 GMT 41.339539 23.500488 38,050 332 419 -64
2018-10-20 19:54:58 GMT 41.325851 23.510132 38,050 332 419 -64
2018-10-20 19:54:54 GMT 41.321442 23.513302 38,050 332 418 0
2018-10-20 19:54:46 GMT 41.307102 23.523415 38,050 332 417 64
2018-10-20 19:54:43 GMT 41.303005 23.526348 38,050 332 417 0
2018-10-20 19:54:36 GMT 41.289780 23.535828 38,050 332 417 0
2018-10-20 19:54:33 GMT 41.285706 23.538696 38,050 332 417 0
2018-10-20 19:54:26 GMT 41.272423 23.548134 38,050 332 416 0
2018-10-20 19:54:22 GMT 41.266975 23.552004 38,050 332 416 64
2018-10-20 19:54:16 GMT 41.255035 23.560364 38,050 332 416 -64
2018-10-20 19:54:12 GMT 41.249588 23.564209 38,050 332 416 0
2018-10-20 19:54:08 GMT 41.241394 23.569946 38,050 333 416 64
2018-10-20 19:54:04 GMT 41.236298 23.573540 38,050 333 416 64
2018-10-20 19:54:01 GMT 41.231186 23.577148 38,050 333 416 64
2018-10-20 19:53:55 GMT 41.219261 23.585524 38,050 332 416 64
2018-10-20 19:53:51 GMT 41.212830 23.590088 38,050 332 416 0
2018-10-20 19:53:47 GMT 41.206009 23.594910 38,050 332 416 0
2018-10-20 19:53:44 GMT 41.201248 23.598267 38,050 332 416 0
2018-10-20 19:53:39 GMT 41.193741 23.603516 38,050 332 416 -64
2018-10-20 19:53:33 GMT 41.183533 23.610718 38,050 332 416 0
2018-10-20 19:53:27 GMT 41.172638 23.618408 38,050 332 416 0
2018-10-20 19:53:21 GMT 41.163445 23.624912 38,050 332 416 0
2018-10-20 19:53:18 GMT 41.156647 23.629719 38,050 332 416 0
2018-10-20 19:53:12 GMT 41.146774 23.636658 38,050 332 417 0
2018-10-20 19:53:08 GMT 41.139954 23.641479 38,050 332 417 0
2018-10-20 19:53:01 GMT 41.129059 23.649170 38,050 332 416 0
2018-10-20 19:52:58 GMT 41.124344 23.652588 38,050 332 417 0
2018-10-20 19:52:55 GMT 41.117870 23.657185 38,050 332 417 0
2018-10-20 19:52:51 GMT 41.110748 23.662231 38,050 332 416 0
2018-10-20 19:52:48 GMT 41.106674 23.665161 38,050 332 416 64
2018-10-20 19:52:40 GMT 41.093124 23.674744 38,050 332 416 64
2018-10-20 19:52:37 GMT 41.087677 23.678589 38,050 332 416 64
2018-10-20 19:52:30 GMT 41.075455 23.687256 38,025 333 416 64
2018-10-20 19:52:26 GMT 41.068634 23.692017 38,025 333 416 -64
2018-10-20 19:52:20 GMT 41.058048 23.699383 38,050 333 416 -64
2018-10-20 19:52:16 GMT 41.040359 23.711803 38,050 332 416 0
2018-10-20 19:52:09 GMT 41.040359 23.711803 38,050 332 416 0
2018-10-20 19:52:05 GMT 41.033890 23.716309 38,050 332 416 0
2018-10-20 19:51:58 GMT 41.022308 23.724426 38,050 333 416 0
2018-10-20 19:51:55 GMT 41.016174 23.728760 38,050 333 416 -64
2018-10-20 19:51:47 GMT 41.002934 23.738022 38,050 332 416 0
2018-10-20 19:51:44 GMT 40.997131 23.742126 38,050 332 416 0
2018-10-20 19:51:38 GMT 40.987289 23.749071 38,050 332 416 0
2018-10-20 19:51:33 GMT 40.979843 23.754375 38,050 332 416 0
2018-10-20 19:51:27 GMT 40.962616 23.766724 38,050 332 416 0
2018-10-20 19:51:23 GMT 40.962616 23.766724 38,050 332 416 64
2018-10-20 19:51:17 GMT 40.952454 23.773987 38,050 332 416 64
2018-10-20 19:51:13 GMT 40.944649 23.779470 38,050 333 416 64
2018-10-20 19:51:05 GMT 40.931007 23.788958 38,050 333 417 -64
2018-10-20 19:51:02 GMT 40.926212 23.792267 38,050 333 417 0
2018-10-20 19:50:56 GMT 40.916672 23.798946 38,050 333 417 -64
2018-10-20 19:50:50 GMT 40.906475 23.806063 38,050 333 417 0
2018-10-20 19:50:44 GMT 40.895535 23.813679 38,050 333 417 64
2018-10-20 19:50:40 GMT 40.888695 23.818422 38,050 333 416 0
2018-10-20 19:50:33 GMT 40.877102 23.826473 38,050 333 417 -64
2018-10-20 19:50:26 GMT 40.865509 23.834526 38,050 333 416 -64
2018-10-20 19:50:23 GMT 40.860397 23.838135 38,050 333 416 -64
2018-10-20 19:50:18 GMT 40.851871 23.844015 38,050 333 416 -64
2018-10-20 19:50:12 GMT 40.841949 23.850891 38,050 333 416 0
2018-10-20 19:50:09 GMT 40.835815 23.855164 38,050 333 416 0
2018-10-20 19:50:02 GMT 40.824234 23.863220 38,050 333 416 0
2018-10-20 19:49:58 GMT 40.818100 23.867432 38,050 333 416 0
2018-10-20 19:49:55 GMT 40.810951 23.872417 38,050 333 416 64
2018-10-20 19:49:52 GMT 40.806854 23.875290 38,050 333 416 64
2018-10-20 19:49:48 GMT 40.800056 23.879971 38,050 333 416 0
2018-10-20 19:49:44 GMT 40.788849 23.887817 38,050 333 416 0
2018-10-20 19:49:37 GMT 40.781715 23.892767 38,050 333 416 0
2018-10-20 19:49:34 GMT 40.775208 23.897278 38,050 333 416 -64
2018-10-20 19:49:31 GMT 40.771133 23.900146 38,050 333 416 -128
2018-10-20 19:49:26 GMT 40.762299 23.906250 38,050 333 415 -64
2018-10-20 19:49:20 GMT 40.752823 23.912903 38,050 333 415 64
2018-10-20 19:49:14 GMT 40.740601 23.921448 38,050 332 414 0
2018-10-20 19:49:10 GMT 40.735535 23.924976 38,050 332 414 0
2018-10-20 19:49:04 GMT 40.723663 23.933289 38,050 332 414 64
2018-10-20 19:48:59 GMT 40.717575 23.937561 38,050 333 414 64
2018-10-20 19:48:52 GMT 40.704712 23.946472 38,050 333 414 0
2018-10-20 19:48:49 GMT 40.700340 23.949572 38,050 333 414 0
2018-10-20 19:48:44 GMT 40.682373 23.962036 38,050 333 414 0
2018-10-20 19:48:39 GMT 40.682373 23.962036 38,050 333 414 0
2018-10-20 19:48:33 GMT 40.672256 23.969055 38,050 333 413 0
2018-10-20 19:48:28 GMT 40.665150 23.973978 38,050 333 413 -64
2018-10-20 19:48:21 GMT 40.653305 23.982239 38,050 333 413 0
2018-10-20 19:48:18 GMT 40.647217 23.986450 38,050 333 413 0
2018-10-20 19:48:13 GMT 40.638756 23.992331 38,050 333 413 64
2018-10-20 19:48:07 GMT 40.629257 23.998884 38,050 333 413 0
2018-10-20 19:48:02 GMT 40.620461 24.004940 38,050 333 414 -64
2018-10-20 19:47:57 GMT 40.612015 24.010864 38,050 333 413 0
2018-10-20 19:47:50 GMT 40.601212 24.018372 38,050 333 413 0
2018-10-20 19:47:44 GMT 40.590408 24.025879 38,050 333 413 0
2018-10-20 19:47:41 GMT 40.584660 24.029846 38,050 333 413 0
2018-10-20 19:47:37 GMT 40.576859 24.035217 38,050 333 413 -64
2018-10-20 19:47:34 GMT 40.573471 24.037537 38,050 333 413 -64
2018-10-20 19:47:30 GMT 40.566696 24.042175 38,050 333 413 0
2018-10-20 19:47:23 GMT 40.555206 24.050110 38,050 333 413 0
2018-10-20 19:47:19 GMT 40.548431 24.054810 38,050 333 412 0
2018-10-20 19:47:13 GMT 40.537968 24.062056 38,050 333 412 64
2018-10-20 19:47:08 GMT 40.529869 24.067675 38,050 333 413 -64
2018-10-20 19:47:02 GMT 40.519718 24.074665 38,050 333 413 -64
2018-10-20 19:46:58 GMT 40.512924 24.079348 38,050 333 413 0
2018-10-20 19:46:52 GMT 40.501785 24.087036 38,050 333 413 0
2018-10-20 19:46:47 GMT 40.494324 24.092163 38,050 333 413 64
2018-10-20 19:46:41 GMT 40.484161 24.099121 38,050 333 413 0
2018-10-20 19:46:36 GMT 40.475029 24.105377 38,050 333 412 -64
2018-10-20 19:46:30 GMT 40.465210 24.112122 38,050 333 412 -64
2018-10-20 19:46:26 GMT 40.458828 24.116550 38,050 333 412 0
2018-10-20 19:46:19 GMT 40.445618 24.125610 38,050 333 412 0
2018-10-20 19:46:16 GMT 40.440903 24.128845 38,050 333 412 0
2018-10-20 19:46:10 GMT 40.430786 24.135803 38,050 333 412 64
2018-10-20 19:45:59 GMT 40.413208 24.147827 38,050 333 411 -64
2018-10-20 19:45:50 GMT 40.397003 24.158936 38,050 333 412 0
2018-10-20 19:45:47 GMT 40.391933 24.162432 38,050 333 412 0
2018-10-20 19:45:38 GMT 40.376770 24.172913 38,050 333 412 -64
2018-10-20 19:45:35 GMT 40.372055 24.176208 38,050 333 412 0
2018-10-20 19:45:30 GMT 40.363628 24.182032 38,050 333 412 0
2018-10-20 19:45:25 GMT 40.353882 24.188782 38,050 333 412 0
2018-10-20 19:45:20 GMT 40.347153 24.193420 38,050 333 412 0
2018-10-20 19:45:14 GMT 40.335373 24.201571 38,050 333 411 0
2018-10-20 19:45:07 GMT 40.323921 24.209497 38,050 333 411 64
2018-10-20 19:45:02 GMT 40.316849 24.214355 38,050 333 412 64
2018-10-20 19:44:53 GMT 40.300972 24.225227 38,050 333 412 0
2018-10-20 19:44:50 GMT 40.296921 24.228037 38,050 333 412 0
2018-10-20 19:44:41 GMT 40.278671 24.240522 38,050 333 412 0
2018-10-20 19:44:29 GMT 40.261124 24.252630 38,050 333 412 64
2018-10-20 19:44:26 GMT 40.254684 24.257080 38,050 333 412 64
2018-10-20 19:44:20 GMT 40.245895 24.263062 38,050 333 412 -64
2018-10-20 19:44:17 GMT 40.239475 24.267488 38,050 333 412 -64
2018-10-20 19:44:11 GMT 40.229645 24.274170 38,050 333 413 0
2018-10-20 19:44:07 GMT 40.223183 24.278538 38,050 333 413 -64
2018-10-20 19:43:59 GMT 40.209961 24.287476 38,050 333 412 -64
2018-10-20 19:43:56 GMT 40.205246 24.290710 38,050 333 412 0
2018-10-20 19:43:48 GMT 40.191341 24.300135 38,050 333 412 0
2018-10-20 19:43:44 GMT 40.185242 24.304255 38,050 333 412 0
2018-10-20 19:43:37 GMT 40.173744 24.312057 38,050 333 412 0
2018-10-20 19:43:34 GMT 40.167645 24.316177 38,050 333 412 0
2018-10-20 19:43:25 GMT 40.153446 24.325853 38,050 333 412 0
2018-10-20 19:43:22 GMT 40.146694 24.330473 38,050 333 412 0
2018-10-20 19:43:15 GMT 40.135849 24.337837 38,050 333 413 -64
2018-10-20 19:43:12 GMT 40.130127 24.341736 38,050 333 412 0
2018-10-20 19:43:04 GMT 40.117950 24.350098 38,050 333 412 0
2018-10-20 19:43:00 GMT 40.110535 24.355164 38,050 333 413 0
2018-10-20 19:42:54 GMT 40.099686 24.362610 38,050 333 413 0
2018-10-20 19:42:49 GMT 40.091251 24.368362 38,050 333 413 -64
2018-10-20 19:42:44 GMT 40.082794 24.374146 38,050 333 413 -64
2018-10-20 19:42:38 GMT 40.073654 24.380409 38,050 333 412 0
2018-10-20 19:42:33 GMT 40.065170 24.386169 38,050 333 413 0
2018-10-20 19:42:27 GMT 40.054665 24.393269 38,050 333 412 0
2018-10-20 19:42:23 GMT 40.048233 24.397644 38,050 333 413 64
2018-10-20 19:42:16 GMT 40.035416 24.406433 38,050 333 412 0
2018-10-20 19:42:12 GMT 40.029663 24.410311 38,050 333 412 0
2018-10-20 19:42:05 GMT 40.017467 24.418612 38,050 333 412 0
2018-10-20 19:42:02 GMT 40.012390 24.422058 38,050 333 412 0
2018-10-20 19:41:54 GMT 39.998840 24.431274 38,050 333 413 64
2018-10-20 19:41:51 GMT 39.977097 24.445984 38,050 333 413 -64
2018-10-20 19:41:41 GMT 39.977097 24.445984 38,050 333 413 -64
2018-10-20 19:41:31 GMT 39.959473 24.457886 38,050 333 413 0
2018-10-20 19:41:20 GMT 39.940430 24.470764 38,050 333 413 0
2018-10-20 19:41:17 GMT 39.934982 24.474426 38,050 333 413 0
2018-10-20 19:41:08 GMT 39.919708 24.484741 38,050 333 413 0
2018-10-20 19:41:01 GMT 39.907837 24.492765 38,050 333 414 -64
2018-10-20 19:40:58 GMT 39.904404 24.495033 38,050 333 414 -64
2018-10-20 19:40:54 GMT 39.894882 24.501482 38,050 333 414 0
2018-10-20 19:40:49 GMT 39.888424 24.505798 38,050 333 414 0
2018-10-20 19:40:46 GMT 39.880280 24.511292 38,050 333 414 -64
2018-10-20 19:40:38 GMT 39.869064 24.518856 38,050 333 414 -64
2018-10-20 19:40:34 GMT 39.859543 24.525246 38,050 333 414 0
2018-10-20 19:40:28 GMT 39.850708 24.531218 38,050 333 414 0
2018-10-20 19:40:23 GMT 39.839497 24.538757 38,050 333 413 0
2018-10-20 19:40:16 GMT 39.830654 24.544678 38,050 333 413 0
2018-10-20 19:40:08 GMT 39.818459 24.552917 38,050 333 413 0
2018-10-20 19:40:05 GMT 39.814041 24.555937 38,050 333 413 64
2018-10-20 19:39:57 GMT 39.799805 24.565489 38,050 333 413 0
2018-10-20 19:39:53 GMT 39.793671 24.569609 38,050 333 413 0
2018-10-20 19:39:48 GMT 39.785217 24.575317 38,050 333 413 -64
2018-10-20 19:39:45 GMT 39.779121 24.579468 38,050 333 413 0
2018-10-20 19:39:37 GMT 39.766224 24.588196 38,050 333 412 -64
2018-10-20 19:39:33 GMT 39.758778 24.593262 38,050 333 411 0
2018-10-20 19:39:26 GMT 39.746979 24.601255 38,050 333 411 64
2018-10-20 19:39:23 GMT 39.740204 24.605852 38,050 333 411 64
2018-10-20 19:39:15 GMT 39.729401 24.613136 38,050 333 411 0
2018-10-20 19:39:12 GMT 39.722324 24.617920 38,050 333 411 0
2018-10-20 19:39:06 GMT 39.711525 24.625183 38,050 333 411 -64
2018-10-20 19:39:01 GMT 39.704079 24.630127 38,050 333 411 -64
2018-10-20 19:38:55 GMT 39.692627 24.637817 38,050 333 411 0
2018-10-20 19:38:52 GMT 39.681129 24.645508 38,050 333 411 0
2018-10-20 19:38:42 GMT 39.673725 24.650452 38,050 333 409 0
2018-10-20 19:38:39 GMT 39.666325 24.655396 38,050 333 409 0
2018-10-20 19:38:31 GMT 39.655525 24.662598 38,050 333 409 64
2018-10-20 19:38:28 GMT 39.648121 24.667542 38,050 333 410 -64
2018-10-20 19:38:20 GMT 39.635651 24.675831 38,050 333 410 -64
2018-10-20 19:38:17 GMT 39.628571 24.680542 38,050 333 409 0
2018-10-20 19:38:09 GMT 39.617432 24.687950 38,050 333 409 0
2018-10-20 19:38:06 GMT 39.611389 24.692011 38,050 333 409 64
2018-10-20 19:37:58 GMT 39.598965 24.700317 38,050 333 410 0
2018-10-20 19:37:55 GMT 39.592213 24.704834 38,050 333 409 0
2018-10-20 19:37:49 GMT 39.582809 24.711182 38,050 333 409 0
2018-10-20 19:37:43 GMT 39.573406 24.717529 38,050 333 409 64
2018-10-20 19:37:37 GMT 39.564655 24.723389 38,050 333 409 0
2018-10-20 19:37:30 GMT 39.552887 24.731359 38,050 333 410 -64
2018-10-20 19:37:27 GMT 39.544830 24.736732 38,050 333 410 -64
2018-10-20 19:37:21 GMT 39.537415 24.741749 38,050 333 410 -64
2018-10-20 19:37:18 GMT 39.532394 24.745117 38,050 333 410 0
2018-10-20 19:37:15 GMT 39.527344 24.748495 38,050 333 409 64
2018-10-20 19:37:12 GMT 39.522289 24.751831 38,050 333 409 64
2018-10-20 19:37:09 GMT 39.516193 24.755920 38,050 333 409 64
2018-10-20 19:37:06 GMT 39.511139 24.759243 38,050 333 410 0
2018-10-20 19:37:02 GMT 39.500381 24.766468 38,050 333 410 -64
2018-10-20 19:36:56 GMT 39.495621 24.769571 38,050 333 410 -64
2018-10-20 19:36:52 GMT 39.488892 24.774052 38,050 333 410 -64
2018-10-20 19:36:47 GMT 39.479744 24.780090 38,050 333 410 0
2018-10-20 19:36:44 GMT 39.474701 24.783484 38,050 333 410 0
2018-10-20 19:36:39 GMT 39.463898 24.790709 38,050 333 411 0
2018-10-20 19:36:36 GMT 39.456436 24.795666 38,050 333 411 0
2018-10-20 19:36:29 GMT 39.447342 24.801758 38,050 333 411 -64
2018-10-20 19:36:25 GMT 39.441940 24.805359 38,050 333 411 -64
2018-10-20 19:36:18 GMT 39.429092 24.813965 38,050 333 411 64
2018-10-20 19:36:15 GMT 39.420639 24.819609 38,050 333 411 -64
2018-10-20 19:36:07 GMT 39.411545 24.825684 38,050 333 411 0
2018-10-20 19:36:04 GMT 39.401733 24.832207 38,050 333 410 0
2018-10-20 19:36:01 GMT 39.401733 24.832207 38,050 333 410 0
2018-10-20 19:35:56 GMT 39.392303 24.838476 38,050 333 410 0
2018-10-20 19:35:53 GMT 39.387894 24.841431 38,050 333 410 -64
2018-10-20 19:35:50 GMT 39.383846 24.844116 38,050 333 409 0
2018-10-20 19:35:43 GMT 39.371044 24.852600 38,050 333 409 0
2018-10-20 19:35:40 GMT 39.365982 24.855970 38,050 333 409 0
2018-10-20 19:35:32 GMT 39.352840 24.864685 38,050 333 409 64
2018-10-20 19:35:28 GMT 39.347122 24.868509 38,050 333 409 0
2018-10-20 19:35:19 GMT 39.330276 24.879675 38,050 333 410 -64
2018-10-20 19:35:12 GMT 39.319881 24.886658 38,050 333 410 -64
2018-10-20 19:35:09 GMT 39.294975 24.903259 38,050 333 409 0
2018-10-20 19:34:59 GMT 39.294975 24.903259 38,050 333 409 0
2018-10-20 19:34:49 GMT 39.278172 24.914429 38,050 333 409 -64
2018-10-20 19:34:38 GMT 39.260330 24.926247 38,050 333 409 64
2018-10-20 19:34:28 GMT 39.245499 24.936039 38,050 333 409 0
2018-10-20 19:34:24 GMT 39.239456 24.940041 38,050 333 409 0
2018-10-20 19:34:17 GMT 39.227661 24.947876 38,050 333 409 64
2018-10-20 19:34:14 GMT 39.221283 24.952101 38,050 333 409 64
2018-10-20 19:34:07 GMT 39.209461 24.959900 38,050 333 410 0
2018-10-20 19:34:02 GMT 39.197311 24.967896 38,050 333 411 0
2018-10-20 19:33:55 GMT 39.190201 24.972582 38,050 333 411 -64
2018-10-20 19:33:52 GMT 39.181412 24.978313 38,050 333 411 64
2018-10-20 19:33:45 GMT 39.172623 24.984104 38,050 333 411 64
2018-10-20 19:33:41 GMT 39.166866 24.987854 38,050 333 411 -64
2018-10-20 19:33:34 GMT 39.154667 24.995911 38,050 333 411 -64
2018-10-20 19:33:30 GMT 39.147583 25.000584 38,050 333 411 -64
2018-10-20 19:33:23 GMT 39.136421 25.007996 38,050 333 411 -128
2018-10-20 19:33:19 GMT 39.128925 25.012939 38,050 333 411 -64
2018-10-20 19:33:13 GMT 39.117737 25.020288 38,050 333 412 64
2018-10-20 19:33:09 GMT 39.111328 25.024536 38,050 333 412 64
2018-10-20 19:33:06 GMT 39.106888 25.027452 38,050 333 411 64
2018-10-20 19:33:02 GMT 39.099735 25.032104 38,050 334 412 0
2018-10-20 19:32:59 GMT 39.092606 25.036766 38,050 334 412 -64
2018-10-20 19:32:56 GMT 39.089218 25.038977 38,050 334 412 -64
2018-10-20 19:32:49 GMT 39.077297 25.046753 38,050 334 413 0
2018-10-20 19:32:46 GMT 39.070816 25.050978 38,050 333 415 64
2018-10-20 19:32:38 GMT 39.059875 25.058083 38,050 334 414 -64
2018-10-20 19:32:35 GMT 39.052021 25.063171 38,050 333 414 -64
2018-10-20 19:32:28 GMT 39.041779 25.069885 38,050 333 415 0
2018-10-20 19:32:24 GMT 39.030838 25.077087 38,050 333 415 64
2018-10-20 19:32:18 GMT 39.024994 25.080891 38,050 333 415 64
2018-10-20 19:32:15 GMT 39.011307 25.089907 38,050 333 415 0
2018-10-20 19:32:11 GMT 39.011307 25.089907 38,050 333 416 -64
2018-10-20 19:32:08 GMT 39.006866 25.092834 38,050 333 416 -64
2018-10-20 19:32:03 GMT 38.997929 25.098694 38,050 333 417 -64
2018-10-20 19:32:00 GMT 38.994186 25.101192 38,050 333 417 0
2018-10-20 19:31:52 GMT 38.980099 25.110474 38,050 333 417 -64
2018-10-20 19:31:49 GMT 38.972557 25.115479 38,050 333 417 0
2018-10-20 19:31:45 GMT 38.967762 25.118652 38,050 333 417 64
2018-10-20 19:31:40 GMT 38.959213 25.124298 38,050 333 417 64
2018-10-20 19:31:33 GMT 38.947495 25.132002 38,050 333 418 -64
2018-10-20 19:31:30 GMT 38.942688 25.135166 38,050 333 418 0
2018-10-20 19:31:23 GMT 38.930660 25.143127 38,050 333 418 -64
2018-10-20 19:31:19 GMT 38.923073 25.148071 38,050 333 418 -64
2018-10-20 19:31:12 GMT 38.912086 25.155334 38,050 333 418 -64
2018-10-20 19:31:08 GMT 38.904144 25.160542 38,050 333 418 -64
2018-10-20 19:30:59 GMT 38.888714 25.170715 38,050 333 418 -64
2018-10-20 19:30:56 GMT 38.884918 25.173201 38,050 333 418 -64
2018-10-20 19:30:46 GMT 38.867065 25.184963 38,050 333 418 64
2018-10-20 19:30:36 GMT 38.848820 25.196899 38,050 333 418 0
2018-10-20 19:30:28 GMT 38.836075 25.205263 38,050 333 418 -64
2018-10-20 19:30:24 GMT 38.829548 25.209595 38,050 333 418 -64
2018-10-20 19:30:13 GMT 38.810226 25.222168 38,050 334 418 0
2018-10-20 19:30:06 GMT 38.797485 25.230520 38,050 334 418 0
2018-10-20 19:30:02 GMT 38.790909 25.234802 38,050 334 418 128
2018-10-20 19:29:58 GMT 38.776749 25.244015 38,050 333 419 -64
2018-10-20 19:29:54 GMT 38.776749 25.244015 38,050 333 419 -64
2018-10-20 19:29:51 GMT 38.772583 25.246700 38,050 333 419 -64
2018-10-20 19:29:46 GMT 38.762924 25.253031 38,050 333 419 64
2018-10-20 19:29:40 GMT 38.753574 25.259094 38,050 333 419 0
2018-10-20 19:29:36 GMT 38.746353 25.263838 38,050 334 419 0
2018-10-20 19:29:33 GMT 38.740444 25.267639 38,050 334 419 -64
2018-10-20 19:29:30 GMT 38.734589 25.271481 38,050 333 419 -64
2018-10-20 19:29:26 GMT 38.729050 25.275063 38,050 334 419 -64
2018-10-20 19:29:22 GMT 38.722477 25.279358 38,050 334 419 0
2018-10-20 19:29:18 GMT 38.715225 25.284079 38,050 334 418 -64
2018-10-20 19:29:14 GMT 38.708313 25.288557 38,050 334 419 0
2018-10-20 19:29:10 GMT 38.702087 25.292557 38,050 334 419 64
2018-10-20 19:29:07 GMT 38.696220 25.296387 38,050 334 419 128
2018-10-20 19:29:04 GMT 38.691055 25.299782 38,050 334 419 0
2018-10-20 19:29:00 GMT 38.684490 25.304016 38,050 334 419 -64
2018-10-20 19:28:56 GMT 38.677555 25.308472 38,050 334 418 -64
2018-10-20 19:28:53 GMT 38.672016 25.312073 38,050 334 418 0
2018-10-20 19:28:49 GMT 38.664429 25.317017 38,050 334 418 64
2018-10-20 19:28:43 GMT 38.654091 25.323730 38,050 334 418 0
2018-10-20 19:28:36 GMT 38.640266 25.332642 38,050 334 418 64
2018-10-20 19:28:33 GMT 38.636822 25.334900 38,050 334 418 0
2018-10-20 19:28:28 GMT 38.628891 25.340027 38,050 334 418 0
2018-10-20 19:28:22 GMT 38.618900 25.346497 38,050 334 418 64
2018-10-20 19:28:18 GMT 38.610947 25.351608 38,050 334 418 0
2018-10-20 19:28:12 GMT 38.600601 25.358295 38,050 334 417 0
2018-10-20 19:28:07 GMT 38.591991 25.363831 38,050 334 417 64
2018-10-20 19:28:02 GMT 38.581657 25.370483 38,050 334 417 0
2018-10-20 19:27:54 GMT 38.570625 25.377625 38,050 333 417 -64
2018-10-20 19:27:50 GMT 38.564117 25.381882 38,050 333 417 128
2018-10-20 19:27:45 GMT 38.554504 25.388149 38,050 333 417 128
2018-10-20 19:27:40 GMT 38.545532 25.393942 38,050 334 417 -64
2018-10-20 19:27:37 GMT 38.538666 25.398361 38,050 334 415 -192
2018-10-20 19:27:33 GMT 38.531799 25.402840 38,050 334 415 64
2018-10-20 19:27:30 GMT 38.528366 25.405048 38,050 334 415 0
2018-10-20 19:27:27 GMT 38.524586 25.407471 38,050 334 415 64
2018-10-20 19:27:23 GMT 38.517426 25.412153 38,050 334 414 64
2018-10-20 19:27:17 GMT 38.507172 25.418781 38,050 334 413 -64
2018-10-20 19:27:13 GMT 38.499664 25.423616 38,075 334 410 128
2018-10-20 19:27:09 GMT 38.492889 25.427977 38,075 334 410 128
2018-10-20 19:27:06 GMT 38.488815 25.430603 38,050 334 410 448
2018-10-20 19:27:02 GMT 38.480358 25.436035 38,000 334 410 832
2018-10-20 19:26:58 GMT 38.474960 25.439514 37,950 334 410 896
2018-10-20 19:26:55 GMT 38.469177 25.443201 37,900 334 410 896
2018-10-20 19:26:51 GMT 38.463089 25.447142 37,850 334 411 960
2018-10-20 19:26:47 GMT 38.449867 25.455688 37,725 334 411 896
2018-10-20 19:26:38 GMT 38.439671 25.462219 37,650 334 410 768
2018-10-20 19:26:33 GMT 38.431870 25.467264 37,575 334 410 832
2018-10-20 19:26:29 GMT 38.423035 25.472937 37,500 334 410 896
2018-10-20 19:26:26 GMT 38.420677 25.474426 37,475 334 410 832
2018-10-20 19:26:22 GMT 38.413231 25.479248 37,425 334 410 896
2018-10-20 19:26:18 GMT 38.404430 25.484938 37,350 334 410 896
2018-10-20 19:26:15 GMT 38.394981 25.491028 37,325 333 409 832
2018-10-20 19:26:11 GMT 38.394981 25.491028 37,275 333 409 832
2018-10-20 19:26:06 GMT 38.387192 25.496054 37,125 333 409 704
2018-10-20 19:26:03 GMT 38.380783 25.500162 37,200 334 409 768
2018-10-20 19:26:00 GMT 38.376736 25.502790 37,125 334 408 768
2018-10-20 19:25:56 GMT 38.369019 25.507799 37,075 334 408 768
2018-10-20 19:25:53 GMT 38.363934 25.511030 37,025 334 407 768
2018-10-20 19:25:48 GMT 38.356888 25.515631 36,900 333 407 832
2018-10-20 19:25:45 GMT 38.349472 25.520365 36,925 333 407 832
2018-10-20 19:25:38 GMT 38.339401 25.526850 36,850 334 406 768
2018-10-20 19:25:35 GMT 38.333721 25.530556 36,800 334 405 832
2018-10-20 19:25:27 GMT 38.321320 25.538479 36,700 334 405 768
2018-10-20 19:25:24 GMT 38.314636 25.542805 36,650 334 404 768
2018-10-20 19:25:20 GMT 38.309967 25.545784 36,600 334 403 768
2018-10-20 19:25:16 GMT 38.302296 25.550735 36,525 334 403 896
2018-10-20 19:25:13 GMT 38.298294 25.553305 36,500 334 403 1024
2018-10-20 19:25:10 GMT 38.291637 25.557604 36,450 334 403 1088
2018-10-20 19:25:04 GMT 38.280975 25.564468 36,325 333 402 1216
2018-10-20 19:24:59 GMT 38.273987 25.568983 36,225 334 403 1280
2018-10-20 19:24:53 GMT 38.263706 25.575636 36,100 334 403 1088
2018-10-20 19:24:48 GMT 38.255356 25.581022 36,050 334 403 64
2018-10-20 19:24:43 GMT 38.245689 25.587217 36,050 334 404 64
2018-10-20 19:24:38 GMT 38.238335 25.591934 36,050 334 404 0
2018-10-20 19:24:31 GMT 38.227673 25.598742 36,050 334 404 -64
2018-10-20 19:24:27 GMT 38.219971 25.603638 36,050 334 404 0
2018-10-20 19:24:22 GMT 38.211613 25.608952 36,050 334 404 0
2018-10-20 19:24:16 GMT 38.201935 25.615150 36,050 334 404 0
2018-10-20 19:24:10 GMT 38.192245 25.621311 36,050 334 404 0
2018-10-20 19:24:05 GMT 38.183590 25.626863 36,050 334 403 64
2018-10-20 19:23:59 GMT 38.173920 25.633032 36,050 334 403 0
2018-10-20 19:23:54 GMT 38.165268 25.638584 36,050 334 403 -64
2018-10-20 19:23:48 GMT 38.155243 25.645012 36,050 334 403 -64
2018-10-20 19:23:44 GMT 38.148254 25.649553 36,050 334 403 0
2018-10-20 19:23:37 GMT 38.137642 25.656420 36,050 333 402 0
2018-10-20 19:23:30 GMT 38.124664 25.664764 36,050 333 402 64
2018-10-20 19:23:26 GMT 38.119354 25.668213 36,050 334 403 64
2018-10-20 19:23:22 GMT 38.112671 25.672478 36,050 334 403 0
2018-10-20 19:23:19 GMT 38.106720 25.676275 36,050 334 403 0
2018-10-20 19:23:16 GMT 38.101051 25.679945 36,050 334 403 64
2018-10-20 19:23:11 GMT 38.093697 25.684603 36,025 334 403 64
2018-10-20 19:23:08 GMT 38.089371 25.687380 36,025 334 404 0
2018-10-20 19:23:04 GMT 38.082001 25.692055 36,050 334 403 -128
2018-10-20 19:23:01 GMT 38.076984 25.695230 36,050 334 403 -128
2018-10-20 19:22:57 GMT 38.071335 25.698833 36,050 334 403 -128
2018-10-20 19:22:53 GMT 38.064651 25.703098 36,050 334 403 0
2018-10-20 19:22:50 GMT 38.058609 25.706898 36,050 334 403 0
2018-10-20 19:22:47 GMT 38.054268 25.709681 36,050 334 403 0
2018-10-20 19:22:42 GMT 38.043915 25.716248 36,050 334 403 0
2018-10-20 19:22:37 GMT 38.036949 25.720667 36,050 334 403 0
2018-10-20 19:22:31 GMT 38.026939 25.727055 36,050 334 403 0
2018-10-20 19:22:26 GMT 38.019585 25.731712 36,050 334 403 -64
2018-10-20 19:22:20 GMT 38.009262 25.738337 36,050 334 403 -64
2018-10-20 19:22:16 GMT 38.000610 25.743830 36,050 334 403 0
2018-10-20 19:22:11 GMT 37.994308 25.747892 36,050 334 402 0
2018-10-20 19:22:08 GMT 37.989651 25.750877 36,050 334 402 0
2018-10-20 19:22:04 GMT 37.982994 25.755117 36,050 334 402 64
2018-10-20 19:21:58 GMT 37.972984 25.761505 36,050 334 402 0
2018-10-20 19:21:55 GMT 37.965679 25.766165 36,050 334 402 0
2018-10-20 19:21:47 GMT 37.954697 25.773167 36,050 334 403 0
2018-10-20 19:21:44 GMT 37.949013 25.776731 36,050 334 403 -64
2018-10-20 19:21:36 GMT 37.930950 25.788076 36,050 334 403 0
2018-10-20 19:21:33 GMT 37.930950 25.788076 36,050 334 404 0
2018-10-20 19:21:23 GMT 37.913540 25.799004 36,050 334 404 0
2018-10-20 19:21:12 GMT 37.896130 25.809870 36,050 334 403 0
2018-10-20 19:21:02 GMT 37.878719 25.820797 36,050 334 404 0
2018-10-20 19:20:57 GMT 37.870331 25.826052 36,050 334 404 0
2018-10-20 19:20:52 GMT 37.861633 25.831488 36,050 334 403 0
2018-10-20 19:20:40 GMT 37.841244 25.844440 36,050 334 404 0
2018-10-20 19:20:29 GMT 37.824188 25.855330 36,050 334 404 0
2018-10-20 19:20:25 GMT 37.817505 25.859596 36,050 334 404 0
2018-10-20 19:20:20 GMT 37.808167 25.865557 36,050 334 404 64
2018-10-20 19:20:17 GMT 37.802464 25.869221 36,025 334 404 0
2018-10-20 19:20:07 GMT 37.787430 25.878822 36,050 334 404 -64
2018-10-20 19:20:04 GMT 37.782761 25.881802 36,050 334 405 -64
2018-10-20 19:19:59 GMT 37.773045 25.887968 36,050 334 405 -64
2018-10-20 19:19:55 GMT 37.764992 25.893044 36,050 334 405 -64
2018-10-20 19:19:48 GMT 37.754608 25.899567 36,050 334 405 -64
2018-10-20 19:19:42 GMT 37.745533 25.905224 36,050 334 404 0
2018-10-20 19:19:37 GMT 37.736176 25.911135 36,050 334 404 0
2018-10-20 19:19:34 GMT 37.729797 25.915112 36,050 334 404 0
2018-10-20 19:19:26 GMT 37.717758 25.922709 36,050 334 404 0
2018-10-20 19:19:22 GMT 37.711716 25.926508 36,050 334 404 -64
2018-10-20 19:19:12 GMT 37.694962 25.937025 36,050 334 405 -64
2018-10-20 19:19:04 GMT 37.681595 25.945499 36,050 334 405 0
2018-10-20 19:19:01 GMT 37.676880 25.948481 36,050 334 405 64
2018-10-20 19:18:53 GMT 37.662483 25.957529 36,050 334 405 64
2018-10-20 19:18:50 GMT 37.658798 25.959875 36,050 334 405 64
2018-10-20 19:18:40 GMT 37.640625 25.971212 36,050 334 405 0
2018-10-20 19:18:31 GMT 37.625198 25.980970 36,050 334 406 64
2018-10-20 19:18:20 GMT 37.606014 25.992996 36,050 334 406 0
2018-10-20 19:18:16 GMT 37.600983 25.996164 36,050 334 406 0
2018-10-20 19:18:10 GMT 37.590561 26.002728 36,050 334 406 0
2018-10-20 19:18:05 GMT 37.581436 26.008495 36,050 334 406 64
2018-10-20 19:18:00 GMT 37.572693 26.013988 36,050 334 407 64
2018-10-20 19:17:54 GMT 37.563263 26.019949 36,050 334 407 64
2018-10-20 19:17:48 GMT 37.553455 26.026134 36,050 334 408 0
2018-10-20 19:17:43 GMT 37.545357 26.031269 36,050 334 409 -64
2018-10-20 19:17:38 GMT 37.536896 26.036547 36,050 334 409 0
2018-10-20 19:17:32 GMT 37.527420 26.042564 36,050 334 409 0
2018-10-20 19:17:27 GMT 37.517612 26.048763 36,050 334 410 -64
2018-10-20 19:17:21 GMT 37.507736 26.054955 36,050 334 410 -128
2018-10-20 19:17:16 GMT 37.498901 26.060564 36,050 334 410 -128
2018-10-20 19:17:09 GMT 37.487026 26.068048 36,050 334 410 -64
2018-10-20 19:17:05 GMT 37.481232 26.071667 36,050 334 410 0
2018-10-20 19:16:59 GMT 37.470036 26.078737 36,050 334 410 0
2018-10-20 19:16:55 GMT 37.463238 26.083036 36,050 334 410 0
2018-10-20 19:16:48 GMT 37.451385 26.090542 36,050 334 410 0
2018-10-20 19:16:43 GMT 37.443546 26.095455 36,050 334 410 0
2018-10-20 19:16:36 GMT 37.431351 26.103098 36,050 334 410 0
2018-10-20 19:16:32 GMT 37.424194 26.107548 36,050 334 410 0
2018-10-20 19:16:26 GMT 37.414314 26.113726 36,050 334 410 64
2018-10-20 19:16:22 GMT 37.407166 26.118126 36,050 334 410 64
2018-10-20 19:16:15 GMT 37.395271 26.125488 36,050 334 410 -64
2018-10-20 19:16:12 GMT 37.390526 26.128473 36,050 334 410 -64
2018-10-20 19:16:04 GMT 37.376232 26.137312 36,050 334 409 -64
2018-10-20 19:16:00 GMT 37.371140 26.140507 36,050 334 409 0
2018-10-20 19:15:53 GMT 37.353794 26.151281 36,050 334 409 64
2018-10-20 19:15:42 GMT 37.340248 26.159641 36,050 334 409 64
2018-10-20 19:15:38 GMT 37.333786 26.163649 36,050 334 408 0
2018-10-20 19:15:29 GMT 37.317204 26.173912 36,050 334 408 -64
2018-10-20 19:15:21 GMT 37.301655 26.183643 36,050 334 407 0
2018-10-20 19:15:18 GMT 37.299271 26.185095 36,050 334 407 0
2018-10-20 19:15:07 GMT 37.280708 26.196720 36,050 334 406 64
2018-10-20 19:15:00 GMT 37.268921 26.204086 36,050 334 406 64
2018-10-20 19:14:56 GMT 37.261852 26.208544 36,050 334 407 0
2018-10-20 19:14:49 GMT 37.243607 26.219887 36,050 334 407 0
2018-10-20 19:14:45 GMT 37.243607 26.219887 36,050 334 407 0
2018-10-20 19:14:36 GMT 37.228409 26.229391 36,050 334 408 0
2018-10-20 19:14:29 GMT 37.215546 26.237396 36,050 334 408 64
2018-10-20 19:14:25 GMT 37.209763 26.240965 36,050 334 408 64
2018-10-20 19:14:19 GMT 37.199249 26.247448 36,050 334 410 0
2018-10-20 19:14:16 GMT 37.195175 26.250019 36,050 334 410 0
2018-10-20 19:14:12 GMT 37.188400 26.254227 36,050 334 410 0
2018-10-20 19:14:08 GMT 37.180573 26.259115 36,050 334 410 0
2018-10-20 19:14:03 GMT 37.173080 26.263714 36,050 334 411 0
2018-10-20 19:13:58 GMT 37.163536 26.269625 36,050 334 411 -64
2018-10-20 19:13:55 GMT 37.158043 26.273027 36,050 334 411 -64
2018-10-20 19:13:47 GMT 37.144356 26.281446 36,050 334 412 0
2018-10-20 19:13:40 GMT 37.132717 26.288610 36,050 334 412 0
2018-10-20 19:13:37 GMT 37.127224 26.291956 36,050 334 413 0
2018-10-20 19:13:34 GMT 37.123131 26.294521 36,050 334 412 0
2018-10-20 19:13:29 GMT 37.114887 26.299599 36,050 334 413 0
2018-10-20 19:13:26 GMT 37.108383 26.303665 36,050 334 413 0
2018-10-20 19:13:23 GMT 37.104263 26.306177 36,050 334 413 0
2018-10-20 19:13:17 GMT 37.094009 26.312607 36,050 334 414 -64
2018-10-20 19:13:13 GMT 37.086456 26.317282 36,050 334 414 -64
2018-10-20 19:13:07 GMT 37.076485 26.323481 36,050 334 414 -64
2018-10-20 19:13:03 GMT 37.069290 26.327917 36,050 334 414 -64
2018-10-20 19:12:56 GMT 37.056931 26.335630 36,050 334 414 0
2018-10-20 19:12:53 GMT 37.052811 26.338144 36,050 334 414 0
2018-10-20 19:12:50 GMT 37.045258 26.342819 36,050 334 414 -64
2018-10-20 19:12:45 GMT 37.038391 26.347086 36,050 334 414 -64
2018-10-20 19:12:42 GMT 37.033237 26.350290 36,050 334 413 -128
2018-10-20 19:12:34 GMT 37.019211 26.359064 36,050 334 413 0
2018-10-20 19:12:31 GMT 37.014755 26.361814 36,050 334 413 0
2018-10-20 19:12:27 GMT 37.006210 26.367128 36,050 334 413 0
2018-10-20 19:12:23 GMT 37.000370 26.370770 36,050 334 413 0
2018-10-20 19:12:20 GMT 36.996273 26.373278 36,050 334 413 0
2018-10-20 19:12:13 GMT 36.982586 26.381817 36,050 334 413 0
2018-10-20 19:12:09 GMT 36.977463 26.384953 36,050 334 413 0
2018-10-20 19:12:01 GMT 36.964108 26.393221 36,050 334 413 0
2018-10-20 19:11:51 GMT 36.944881 26.405102 36,050 334 413 64
2018-10-20 19:11:48 GMT 36.941803 26.406984 36,050 334 413 64
2018-10-20 19:11:38 GMT 36.924255 26.417702 36,025 334 414 128
2018-10-20 19:11:31 GMT 36.910477 26.426060 36,025 334 414 64
2018-10-20 19:11:27 GMT 36.905319 26.429190 36,025 334 414 0
2018-10-20 19:11:19 GMT 36.891205 26.437881 36,050 334 415 -64
2018-10-20 19:11:16 GMT 36.885712 26.441286 36,050 334 415 -128
2018-10-20 19:11:10 GMT 36.874680 26.448092 36,050 334 416 -64
2018-10-20 19:11:06 GMT 36.868103 26.452156 36,050 334 416 -64
2018-10-20 19:10:59 GMT 36.856056 26.459557 36,050 334 416 -64
2018-10-20 19:10:55 GMT 36.848785 26.464062 36,050 334 416 -64
2018-10-20 19:10:49 GMT 36.838394 26.470413 36,050 334 415 -64
2018-10-20 19:10:43 GMT 36.828735 26.476307 36,050 334 415 0
2018-10-20 19:10:38 GMT 36.820450 26.481400 36,050 334 415 64
2018-10-20 19:10:33 GMT 36.812164 26.486492 36,050 334 416 64
2018-10-20 19:10:27 GMT 36.800446 26.493702 36,050 334 415 0
2018-10-20 19:10:22 GMT 36.793533 26.497993 36,050 334 416 -64
2018-10-20 19:10:17 GMT 36.783188 26.504345 36,050 334 415 -64
2018-10-20 19:10:12 GMT 36.774544 26.509602 36,050 334 415 -64
2018-10-20 19:10:07 GMT 36.765884 26.514931 36,050 334 415 0
2018-10-20 19:10:01 GMT 36.756226 26.520824 36,050 334 415 0
2018-10-20 19:09:56 GMT 36.746895 26.526489 36,050 334 415 64
2018-10-20 19:09:49 GMT 36.735813 26.533211 36,050 334 415 128
2018-10-20 19:09:45 GMT 36.728226 26.537886 36,050 334 415 64
2018-10-20 19:09:41 GMT 36.721336 26.542091 36,050 334 415 64
2018-10-20 19:09:38 GMT 36.716858 26.544857 36,050 334 416 64
2018-10-20 19:09:35 GMT 36.710632 26.548691 36,025 334 416 0
2018-10-20 19:09:31 GMT 36.704765 26.552319 36,025 334 416 0
2018-10-20 19:09:27 GMT 36.698181 26.556358 36,050 334 417 -64
2018-10-20 19:09:21 GMT 36.686794 26.563364 36,050 334 417 -128
2018-10-20 19:09:16 GMT 36.679504 26.567860 36,050 334 417 -128
2018-10-20 19:09:13 GMT 36.673965 26.571293 36,050 334 417 -64
2018-10-20 19:09:09 GMT 36.666367 26.575928 36,050 334 417 0
2018-10-20 19:09:02 GMT 36.653915 26.583595 36,050 334 416 64
2018-10-20 19:08:59 GMT 36.649063 26.586514 36,050 334 416 64
2018-10-20 19:08:52 GMT 36.636936 26.593927 36,050 334 416 0
2018-10-20 19:08:49 GMT 36.632095 26.596907 36,050 334 416 0
2018-10-20 19:08:41 GMT 36.617935 26.605568 36,050 334 417 0
2018-10-20 19:08:38 GMT 36.613770 26.608143 36,050 334 417 0
2018-10-20 19:08:32 GMT 36.601650 26.615549 36,050 334 417 0
2018-10-20 19:08:28 GMT 36.595047 26.619530 36,050 334 417 0
2018-10-20 19:08:21 GMT 36.583588 26.626535 36,050 334 418 64
2018-10-20 19:08:17 GMT 36.576653 26.630800 36,050 334 418 0
2018-10-20 19:08:10 GMT 36.565155 26.637726 36,050 334 418 0
2018-10-20 19:08:06 GMT 36.557892 26.642197 36,050 334 419 0
2018-10-20 19:07:58 GMT 36.543274 26.651079 36,050 334 419 -64
2018-10-20 19:07:48 GMT 36.525513 26.661873 36,050 334 419 64
2018-10-20 19:07:45 GMT 36.521301 26.664448 36,050 334 419 64
2018-10-20 19:07:40 GMT 36.510178 26.671200 36,050 334 419 0
2018-10-20 19:07:35 GMT 36.503517 26.675272 36,050 334 419 0
2018-10-20 19:07:27 GMT 36.490250 26.683336 36,050 334 419 0
2018-10-20 19:07:24 GMT 36.483967 26.687136 36,050 334 420 0
2018-10-20 19:07:18 GMT 36.473145 26.693745 36,050 334 421 0
2018-10-20 19:07:15 GMT 36.460224 26.701628 36,050 334 421 64
2018-10-20 19:07:07 GMT 36.453896 26.705425 36,050 334 421 0
2018-10-20 19:07:03 GMT 36.447968 26.709080 36,050 334 421 0
2018-10-20 19:06:56 GMT 36.434296 26.717346 36,050 334 421 0
2018-10-20 19:06:51 GMT 36.426956 26.721840 36,050 334 421 0
2018-10-20 19:06:46 GMT 36.418533 26.726933 36,050 334 421 0
2018-10-20 19:06:42 GMT 36.410843 26.731625 36,050 334 422 0
2018-10-20 19:06:36 GMT 36.399288 26.738676 36,050 334 422 64
2018-10-20 19:06:31 GMT 36.391891 26.743126 36,050 334 422 0
2018-10-20 19:06:25 GMT 36.380295 26.750191 36,050 334 423 0
2018-10-20 19:06:21 GMT 36.374008 26.753988 36,050 334 423 0
2018-10-20 19:06:14 GMT 36.359573 26.762695 36,050 334 423 0
2018-10-20 19:06:10 GMT 36.345474 26.771221 36,050 334 423 -64
2018-10-20 19:06:05 GMT 36.345474 26.771221 36,050 334 423 -64
2018-10-20 19:06:01 GMT 36.332794 26.778946 36,050 334 424 0
2018-10-20 19:05:58 GMT 36.332794 26.778946 36,050 334 424 0
2018-10-20 19:05:54 GMT 36.326805 26.782564 36,050 334 424 0
2018-10-20 19:05:47 GMT 36.313751 26.790447 36,050 334 423 0
2018-10-20 19:05:44 GMT 36.308807 26.793423 36,050 334 423 -64
2018-10-20 19:05:39 GMT 36.299294 26.799162 36,050 334 425 0
2018-10-20 19:05:33 GMT 36.289764 26.804924 36,050 335 424 0
2018-10-20 19:05:28 GMT 36.280209 26.810673 36,050 335 424 0
2018-10-20 19:05:23 GMT 36.272095 26.815567 36,050 334 425 0
2018-10-20 19:05:17 GMT 36.260422 26.822594 36,050 334 425 0
2018-10-20 19:05:13 GMT 36.253345 26.826860 36,050 334 425 0
2018-10-20 19:05:09 GMT 36.245571 26.831594 36,050 334 425 0
2018-10-20 19:05:06 GMT 36.242081 26.833696 36,050 334 425 0
2018-10-20 19:05:02 GMT 36.235004 26.837963 36,050 334 424 0
2018-10-20 19:04:56 GMT 36.222996 26.845268 36,050 334 424 0
2018-10-20 19:04:53 GMT 36.216293 26.849327 36,050 334 424 0
2018-10-20 19:04:45 GMT 36.204300 26.856594 36,050 334 424 0
2018-10-20 19:04:41 GMT 36.197250 26.860886 36,050 334 424 0
2018-10-20 19:04:32 GMT 36.174999 26.874311 36,050 334 424 0
2018-10-20 19:04:25 GMT 36.166168 26.879711 36,050 334 424 0
2018-10-20 19:04:22 GMT 36.161591 26.882492 36,050 334 424 0
2018-10-20 19:04:16 GMT 36.154175 26.886978 36,050 334 425 0
2018-10-20 19:04:11 GMT 36.143555 26.893387 36,050 334 425 0
2018-10-20 19:04:03 GMT 36.130142 26.901455 36,050 334 425 64
2018-10-20 19:04:00 GMT 36.125885 26.904030 36,050 334 425 64
2018-10-20 19:03:50 GMT 36.107174 26.915335 36,050 334 425 0
2018-10-20 19:03:45 GMT 36.097256 26.921295 36,050 334 425 0
2018-10-20 19:03:40 GMT 36.089127 26.926174 36,050 335 424 0
2018-10-20 19:03:30 GMT 36.071049 26.937016 36,050 335 424 0
2018-10-20 19:03:20 GMT 36.051964 26.948469 36,050 335 424 0
2018-10-20 19:03:09 GMT 36.033920 26.959248 36,050 335 424 0
2018-10-20 19:02:59 GMT 36.016205 26.969833 36,050 335 424 64
2018-10-20 19:02:48 GMT 35.997849 26.980877 36,050 335 424 0
2018-10-20 19:02:37 GMT 35.978714 26.992264 36,050 335 425 0
2018-10-20 19:02:28 GMT 35.960312 27.003250 36,050 335 425 0
2018-10-20 19:02:17 GMT 35.942936 27.013569 36,050 335 424 0
2018-10-20 19:02:06 GMT 35.923851 27.024965 36,050 335 424 0
2018-10-20 19:01:55 GMT 35.904762 27.036360 36,050 334 424 0
2018-10-20 19:01:52 GMT 35.898434 27.040216 36,050 334 424 0
2018-10-20 19:01:45 GMT 35.886108 27.047653 36,050 334 424 0
2018-10-20 19:01:42 GMT 35.880791 27.050854 36,050 334 424 0
2018-10-20 19:01:31 GMT 35.861435 27.062531 36,050 334 424 0
2018-10-20 19:01:24 GMT 35.849087 27.069962 36,050 334 423 0
2018-10-20 19:01:20 GMT 35.843079 27.073517 36,050 334 423 0
2018-10-20 19:01:13 GMT 35.830002 27.081299 36,050 335 424 0
2018-10-20 19:01:10 GMT 35.823990 27.084904 36,050 335 424 0
2018-10-20 19:01:03 GMT 35.811310 27.092457 36,050 335 424 64
2018-10-20 19:00:59 GMT 35.805283 27.096025 36,050 335 424 64
2018-10-20 19:00:54 GMT 35.795746 27.101727 36,050 335 424 0
2018-10-20 19:00:51 GMT 35.791489 27.104244 36,050 335 424 64
2018-10-20 19:00:48 GMT 35.786545 27.107162 36,050 335 424 0
2018-10-20 19:00:44 GMT 35.777390 27.112656 36,050 335 424 0
2018-10-20 19:00:37 GMT 35.766037 27.119408 36,050 335 425 0
2018-10-20 19:00:31 GMT 35.755749 27.125536 36,050 335 426 0
2018-10-20 19:00:27 GMT 35.747974 27.130154 36,050 335 426 0
2018-10-20 19:00:21 GMT 35.738014 27.136055 36,050 335 427 0
2018-10-20 19:00:16 GMT 35.729095 27.141380 36,050 335 427 0
2018-10-20 19:00:12 GMT 35.721222 27.146015 36,050 335 427 -64
2018-10-20 19:00:09 GMT 35.715900 27.149204 36,050 335 428 -64
2018-10-20 19:00:05 GMT 35.708733 27.153412 36,050 335 428 0
2018-10-20 19:00:02 GMT 35.703053 27.156801 36,050 335 428 0
2018-10-20 18:59:59 GMT 35.698380 27.159576 36,050 335 428 0
2018-10-20 18:59:54 GMT 35.689819 27.164612 36,050 335 428 -64
2018-10-20 18:59:51 GMT 35.683735 27.168255 36,050 335 428 -64
2018-10-20 18:59:48 GMT 35.679840 27.170563 36,050 335 428 -64
2018-10-20 18:59:41 GMT 35.666603 27.178364 36,050 335 427 -128
2018-10-20 18:59:38 GMT 35.660179 27.182163 36,050 335 427 -64
2018-10-20 18:59:31 GMT 35.648075 27.189293 36,050 335 427 0
2018-10-20 18:59:27 GMT 35.640610 27.193737 36,050 335 427 -64
2018-10-20 18:59:21 GMT 35.629593 27.200277 36,050 335 426 0
2018-10-20 18:59:16 GMT 35.621384 27.205124 36,050 335 426 64
2018-10-20 18:59:10 GMT 35.610764 27.211418 36,050 335 425 0
2018-10-20 18:59:05 GMT 35.601894 27.216700 36,050 335 425 0
2018-10-20 18:59:00 GMT 35.592678 27.222134 36,050 335 424 64
2018-10-20 18:58:55 GMT 35.585266 27.226582 36,050 335 424 64
2018-10-20 18:58:50 GMT 35.574646 27.232876 36,050 335 424 64
2018-10-20 18:58:45 GMT 35.566517 27.237738 36,050 335 424 0
2018-10-20 18:58:39 GMT 35.555946 27.244047 36,050 335 424 0
2018-10-20 18:58:34 GMT 35.548172 27.248665 36,050 335 424 -64
2018-10-20 18:58:28 GMT 35.536514 27.255592 36,050 335 424 -64
2018-10-20 18:58:24 GMT 35.529419 27.259769 36,050 335 424 0
2018-10-20 18:58:17 GMT 35.518475 27.266254 36,050 335 424 64
2018-10-20 18:58:13 GMT 35.509998 27.271339 36,050 335 424 64
2018-10-20 18:58:07 GMT 35.499023 27.277851 36,050 335 425 0
2018-10-20 18:57:58 GMT 35.479156 27.289581 36,050 335 424 0
2018-10-20 18:57:45 GMT 35.459976 27.300911 36,050 335 426 -64
2018-10-20 18:57:34 GMT 35.441483 27.311840 36,050 335 425 0
2018-10-20 18:57:27 GMT 35.427696 27.320019 36,050 335 425 0
2018-10-20 18:57:23 GMT 35.422348 27.323170 36,050 335 425 0
2018-10-20 18:57:16 GMT 35.408890 27.331123 36,050 335 424 64
2018-10-20 18:57:12 GMT 35.383797 27.345964 36,050 335 424 0
2018-10-20 18:57:02 GMT 35.383797 27.345964 36,050 335 424 0
2018-10-20 18:56:55 GMT 35.371399 27.353325 36,050 335 424 0
2018-10-20 18:56:51 GMT 35.364304 27.357502 36,050 335 424 0
2018-10-20 18:56:45 GMT 35.354050 27.363554 36,050 335 424 0
2018-10-20 18:56:40 GMT 35.345901 27.368317 36,050 335 424 64
2018-10-20 18:56:35 GMT 35.334595 27.375011 36,050 335 425 0
2018-10-20 18:56:30 GMT 35.315784 27.386053 36,050 335 425 0
2018-10-20 18:56:23 GMT 35.315784 27.386053 36,050 335 425 0
2018-10-20 18:56:19 GMT 35.288830 27.401890 36,050 335 424 0
2018-10-20 18:56:08 GMT 35.288830 27.401890 36,050 335 424 -64
2018-10-20 18:56:03 GMT 35.279251 27.407513 36,050 335 425 -64
2018-10-20 18:55:57 GMT 35.270050 27.412949 36,050 335 425 0
2018-10-20 18:55:53 GMT 35.260117 27.418785 36,050 335 424 0
2018-10-20 18:55:46 GMT 35.250183 27.424564 36,050 335 424 -64
2018-10-20 18:55:41 GMT 35.242001 27.429356 36,050 335 424 0
2018-10-20 18:55:36 GMT 35.224640 27.439531 36,050 335 423 64
2018-10-20 18:55:32 GMT 35.224640 27.439531 36,050 335 424 -64
2018-10-20 18:55:23 GMT 35.202335 27.452660 36,050 335 424 0
2018-10-20 18:55:14 GMT 35.193119 27.458096 36,050 335 424 64
2018-10-20 18:55:11 GMT 35.187836 27.461168 36,050 335 424 64
2018-10-20 18:55:01 GMT 35.170494 27.471313 36,050 335 423 0
2018-10-20 18:54:51 GMT 35.151409 27.482471 36,050 335 423 64
2018-10-20 18:54:39 GMT 35.131210 27.494295 36,050 335 423 0
2018-10-20 18:54:32 GMT 35.118122 27.501926 36,050 335 424 0
2018-10-20 18:54:29 GMT 35.114227 27.504215 36,050 335 424 0
2018-10-20 18:54:19 GMT 35.095825 27.514921 36,050 335 424 0
2018-10-20 18:54:08 GMT 35.076736 27.526077 36,050 335 423 0
2018-10-20 18:53:58 GMT 35.058678 27.536659 36,050 335 424 64
2018-10-20 18:53:47 GMT 35.039589 27.547817 36,050 335 424 -64
2018-10-20 18:53:36 GMT 35.020504 27.558975 36,050 335 424 0
2018-10-20 18:53:26 GMT 35.002815 27.569389 36,050 335 424 0
2018-10-20 18:53:16 GMT 34.984085 27.580336 36,050 335 424 64
2018-10-20 18:53:04 GMT 34.963898 27.592049 36,050 335 424 -64
2018-10-20 18:52:55 GMT 34.946903 27.601891 36,050 335 424 -64
2018-10-20 18:52:44 GMT 34.928101 27.612734 36,050 335 424 64
2018-10-20 18:52:33 GMT 34.909336 27.623577 36,050 335 424 0
2018-10-20 18:52:22 GMT 34.889507 27.635078 36,050 335 423 0
2018-10-20 18:52:13 GMT 34.872162 27.645132 36,050 335 423 0
2018-10-20 18:52:02 GMT 34.853428 27.656021 36,050 335 423 0
2018-10-20 18:51:51 GMT 34.834030 27.667442 36,050 335 423 -64
2018-10-20 18:51:43 GMT 34.820618 27.675289 36,050 335 423 0
2018-10-20 18:51:40 GMT 34.815350 27.678394 36,050 335 423 0
2018-10-20 18:51:32 GMT 34.798004 27.688519 36,050 335 423 0
2018-10-20 18:51:29 GMT 34.794819 27.690353 36,050 335 423 0
2018-10-20 18:51:23 GMT 34.784592 27.696308 36,050 335 423 0
2018-10-20 18:51:20 GMT 34.778915 27.699560 36,050 335 423 0
2018-10-20 18:51:07 GMT 34.756989 27.712284 36,050 335 423 0
2018-10-20 18:50:59 GMT 34.741749 27.721081 36,050 335 423 0
2018-10-20 18:50:47 GMT 34.721966 27.732525 36,050 335 423 -64
2018-10-20 18:50:34 GMT 34.697617 27.746643 36,050 335 422 64
2018-10-20 18:50:13 GMT 34.660904 27.767887 36,050 335 422 0
2018-10-20 18:50:05 GMT 34.647156 27.775841 36,050 335 422 64
2018-10-20 18:49:53 GMT 34.625656 27.788347 36,050 335 422 0
2018-10-20 18:49:42 GMT 34.606613 27.799334 36,050 335 422 0
2018-10-20 18:49:33 GMT 34.590733 27.808514 36,050 335 421 0
2018-10-20 18:49:22 GMT 34.571365 27.819681 36,050 335 421 -64
2018-10-20 18:49:05 GMT 34.541702 27.836721 36,050 335 422 0
2018-10-20 18:49:01 GMT 34.533234 27.841599 36,050 335 422 0
2018-10-20 18:48:51 GMT 34.516670 27.851143 36,050 335 422 0
2018-10-20 18:48:41 GMT 34.497986 27.861944 36,050 335 422 0
2018-10-20 18:48:29 GMT 34.478256 27.873379 36,050 335 422 0
2018-10-20 18:48:17 GMT 34.456711 27.885761 36,050 335 422 0
2018-10-20 18:48:08 GMT 34.440125 27.895296 36,050 335 422 -64
2018-10-20 18:47:57 GMT 34.421768 27.905834 36,050 335 422 0
2018-10-20 18:47:47 GMT 34.404099 27.915922 36,050 335 423 0
2018-10-20 18:47:36 GMT 34.383949 27.927475 36,050 335 422 0
2018-10-20 18:47:24 GMT 34.362396 27.939857 36,050 335 423 -64
2018-10-20 18:47:01 GMT 34.322407 27.962780 36,050 335 423 0
2018-10-20 18:46:55 GMT 34.311092 27.969303 36,050 335 423 0
2018-10-20 18:46:44 GMT 34.292660 27.979832 36,050 335 424 0
2018-10-20 18:46:34 GMT 34.274269 27.990360 36,050 335 424 0
2018-10-20 18:46:23 GMT 34.255138 28.001289 36,050 335 424 64
2018-10-20 18:46:12 GMT 34.235641 28.012445 36,050 335 424 -64
2018-10-20 18:46:02 GMT 34.217880 28.022535 36,050 335 424 0
2018-10-20 18:45:51 GMT 34.198391 28.033676 36,050 335 423 0
2018-10-20 18:45:41 GMT 34.180656 28.043747 36,050 335 423 0
2018-10-20 18:45:30 GMT 34.161850 28.054375 36,050 335 423 0
2018-10-20 18:45:04 GMT 34.115341 28.080769 36,050 335 423 0
2018-10-20 18:44:58 GMT 34.104355 28.086996 36,050 335 423 0
2018-10-20 18:44:48 GMT 34.086990 28.096848 36,050 335 423 0
2018-10-20 18:44:37 GMT 34.067551 28.107960 36,050 335 423 0
2018-10-20 18:44:26 GMT 34.048416 28.118891 36,050 335 423 0
2018-10-20 18:44:15 GMT 34.028988 28.129978 36,050 335 422 0
2018-10-20 18:44:05 GMT 34.011299 28.140049 36,050 335 422 0
2018-10-20 18:43:55 GMT 33.992954 28.150520 36,050 335 422 0
2018-10-20 18:43:42 GMT 33.969955 28.163565 36,050 335 422 0
2018-10-20 18:43:30 GMT 33.948406 28.175755 36,050 335 421 0
2018-10-20 18:43:12 GMT 33.916565 28.193607 36,050 336 421 0
2018-10-20 18:42:47 GMT 33.873505 28.217812 36,050 335 420 0
2018-10-20 18:42:40 GMT 33.861145 28.224773 36,050 335 421 0
2018-10-20 18:42:29 GMT 33.841103 28.236179 36,050 335 420 0
2018-10-20 18:42:19 GMT 33.822807 28.246593 36,050 337 421 0
2018-10-20 18:42:08 GMT 33.803955 28.255692 36,050 341 422 -64
2018-10-20 18:41:58 GMT 33.784496 28.263016 36,050 346 425 -64
2018-10-20 18:41:47 GMT 33.764053 28.268383 36,050 352 428 0
2018-10-20 18:41:37 GMT 33.743950 28.271255 36,050 357 431 0
2018-10-20 18:41:26 GMT 33.722031 28.273035 36,050 357 431 0
2018-10-20 18:41:15 GMT 33.700886 28.274746 36,050 357 431 0
2018-10-20 18:41:06 GMT 33.680962 28.276291 36,050 357 431 0

Making use of Plane Finder data

You are free to use the raw flight data, aircraft information and images provided in this report for your own purposes provided the data is correctly attributed to Plane Finder. We ask that you please credit Plane Finder and link to planefinder.net in close proximity to the content.

Optionally one of the following logos (no smaller then 150x24px) can be used and must link to planefinder.net

Embedding the Plane Finder map

You are welcome to embed the Plane Finder playback map on your website to offer visitors a more interactive experience. We suggest using the following HTML code:

<iframe src="//planefinder.net/data/report/GMI13EH-D-AGER-7700-squawk-2018-10-20/map" width="800" height="600" seamless="seamless"></iframe>

Where our data comes from

Plane Finder has a global network of data feeds and antenna radars that receive data broadcast directly from aircraft. The primary technologies used are ADS-B and MLAT. We also show feeds from the FAA and a FLARM glider feed.

Click here to find out more about the Plane Finder network.

How we collect our data